<?xml version="1.0" encoding="UTF-8" standalone="no" ?>
<gpx xmlns="http://www.topografix.com/GPX/1/1" xmlns:xsi="http://www.w3.org/2001/XMLSchema-instance" xsi:schemaLocation="http://www.topografix.com/GPX/1/1 http://www.topografix.com/GPX/1/1/gpx.xsd" version="1.1" creator="VisuGPX - https://www.visugpx.com">
  <metadata>
    <name>129SG71-7478104-</name>
    <desc><![CDATA[
12-19]]></desc>
  </metadata>
  <trk>
    <name><![CDATA[129SG71-7478104-]]></name>
    <trkseg>
      <trkpt lat="46.69908" lon="-1.93347">
        <ele>6</ele>
        <time>2018-04-22T07:26:53Z</time>
      </trkpt>
      <trkpt lat="46.6991" lon="-1.93375">
        <ele>5</ele>
        <time>2018-04-22T07:27:53Z</time>
      </trkpt>
      <trkpt lat="46.69915" lon="-1.93379">
        <ele>4</ele>
        <time>2018-04-22T07:28:53Z</time>
      </trkpt>
      <trkpt lat="46.69915" lon="-1.93381">
        <ele>4</ele>
        <time>2018-04-22T07:29:53Z</time>
      </trkpt>
      <trkpt lat="46.6994" lon="-1.9338">
        <ele>4</ele>
        <time>2018-04-22T07:30:53Z</time>
      </trkpt>
      <trkpt lat="46.69955" lon="-1.93377">
        <ele>4</ele>
        <time>2018-04-22T07:31:53Z</time>
      </trkpt>
      <trkpt lat="46.69973" lon="-1.93368">
        <ele>4</ele>
        <time>2018-04-22T07:32:53Z</time>
      </trkpt>
      <trkpt lat="46.69981" lon="-1.93367">
        <ele>3</ele>
        <time>2018-04-22T07:33:53Z</time>
      </trkpt>
      <trkpt lat="46.70018" lon="-1.93384">
        <ele>3</ele>
        <time>2018-04-22T07:34:53Z</time>
      </trkpt>
      <trkpt lat="46.70026" lon="-1.93389">
        <ele>3</ele>
        <time>2018-04-22T07:35:53Z</time>
      </trkpt>
      <trkpt lat="46.70036" lon="-1.934">
        <ele>2</ele>
        <time>2018-04-22T07:36:53Z</time>
      </trkpt>
      <trkpt lat="46.7005" lon="-1.93406">
        <ele>2</ele>
        <time>2018-04-22T07:37:53Z</time>
      </trkpt>
      <trkpt lat="46.70057" lon="-1.93396">
        <ele>2</ele>
        <time>2018-04-22T07:38:53Z</time>
      </trkpt>
      <trkpt lat="46.70064" lon="-1.93406">
        <ele>2</ele>
        <time>2018-04-22T07:39:53Z</time>
      </trkpt>
      <trkpt lat="46.70086" lon="-1.93406">
        <ele>2</ele>
        <time>2018-04-22T07:40:53Z</time>
      </trkpt>
      <trkpt lat="46.70113" lon="-1.93385">
        <ele>2</ele>
        <time>2018-04-22T07:41:53Z</time>
      </trkpt>
      <trkpt lat="46.70116" lon="-1.93375">
        <ele>2</ele>
        <time>2018-04-22T07:42:53Z</time>
      </trkpt>
      <trkpt lat="46.70124" lon="-1.93369">
        <ele>1</ele>
        <time>2018-04-22T07:43:53Z</time>
      </trkpt>
      <trkpt lat="46.70131" lon="-1.93369">
        <ele>2</ele>
        <time>2018-04-22T07:44:53Z</time>
      </trkpt>
      <trkpt lat="46.70142" lon="-1.93375">
        <ele>1</ele>
        <time>2018-04-22T07:45:53Z</time>
      </trkpt>
      <trkpt lat="46.70164" lon="-1.93377">
        <ele>1</ele>
        <time>2018-04-22T07:46:53Z</time>
      </trkpt>
      <trkpt lat="46.70163" lon="-1.93385">
        <ele>1</ele>
        <time>2018-04-22T07:47:53Z</time>
      </trkpt>
      <trkpt lat="46.7015" lon="-1.93394">
        <ele>1</ele>
        <time>2018-04-22T07:48:53Z</time>
      </trkpt>
      <trkpt lat="46.70145" lon="-1.93407">
        <ele>1</ele>
        <time>2018-04-22T07:49:53Z</time>
      </trkpt>
      <trkpt lat="46.70145" lon="-1.93429">
        <ele>1</ele>
        <time>2018-04-22T07:50:53Z</time>
      </trkpt>
      <trkpt lat="46.70151" lon="-1.93476">
        <ele>1</ele>
        <time>2018-04-22T07:51:53Z</time>
      </trkpt>
      <trkpt lat="46.7015" lon="-1.93486">
        <ele>1</ele>
        <time>2018-04-22T07:52:53Z</time>
      </trkpt>
      <trkpt lat="46.70196" lon="-1.93684">
        <ele>2</ele>
        <time>2018-04-22T07:53:53Z</time>
      </trkpt>
      <trkpt lat="46.70228" lon="-1.93802">
        <ele>4</ele>
        <time>2018-04-22T07:54:53Z</time>
      </trkpt>
      <trkpt lat="46.70248" lon="-1.93864">
        <ele>3</ele>
        <time>2018-04-22T07:55:53Z</time>
      </trkpt>
      <trkpt lat="46.70252" lon="-1.93863">
        <ele>3</ele>
        <time>2018-04-22T07:56:53Z</time>
      </trkpt>
      <trkpt lat="46.70258" lon="-1.93867">
        <ele>3</ele>
        <time>2018-04-22T07:57:53Z</time>
      </trkpt>
      <trkpt lat="46.70274" lon="-1.93884">
        <ele>3</ele>
        <time>2018-04-22T07:58:53Z</time>
      </trkpt>
      <trkpt lat="46.70278" lon="-1.93895">
        <ele>3</ele>
        <time>2018-04-22T07:59:53Z</time>
      </trkpt>
      <trkpt lat="46.70288" lon="-1.9393">
        <ele>3</ele>
        <time>2018-04-22T08:00:53Z</time>
      </trkpt>
      <trkpt lat="46.70329" lon="-1.93995">
        <ele>3</ele>
        <time>2018-04-22T08:01:53Z</time>
      </trkpt>
      <trkpt lat="46.70376" lon="-1.94054">
        <ele>4</ele>
        <time>2018-04-22T08:02:53Z</time>
      </trkpt>
      <trkpt lat="46.70387" lon="-1.94076">
        <ele>4</ele>
        <time>2018-04-22T08:03:53Z</time>
      </trkpt>
      <trkpt lat="46.70408" lon="-1.94095">
        <ele>4</ele>
        <time>2018-04-22T08:04:53Z</time>
      </trkpt>
      <trkpt lat="46.70444" lon="-1.94121">
        <ele>4</ele>
        <time>2018-04-22T08:05:53Z</time>
      </trkpt>
      <trkpt lat="46.70502" lon="-1.94147">
        <ele>4</ele>
        <time>2018-04-22T08:06:53Z</time>
      </trkpt>
      <trkpt lat="46.70541" lon="-1.94169">
        <ele>4</ele>
        <time>2018-04-22T08:07:53Z</time>
      </trkpt>
      <trkpt lat="46.70564" lon="-1.9418">
        <ele>5</ele>
        <time>2018-04-22T08:08:53Z</time>
      </trkpt>
      <trkpt lat="46.70611" lon="-1.94188">
        <ele>5</ele>
        <time>2018-04-22T08:09:53Z</time>
      </trkpt>
      <trkpt lat="46.70685" lon="-1.94193">
        <ele>6</ele>
        <time>2018-04-22T08:10:53Z</time>
      </trkpt>
      <trkpt lat="46.70695" lon="-1.94195">
        <ele>6</ele>
        <time>2018-04-22T08:11:53Z</time>
      </trkpt>
      <trkpt lat="46.70707" lon="-1.94202">
        <ele>6</ele>
        <time>2018-04-22T08:12:53Z</time>
      </trkpt>
      <trkpt lat="46.70716" lon="-1.94204">
        <ele>6</ele>
        <time>2018-04-22T08:13:53Z</time>
      </trkpt>
      <trkpt lat="46.70793" lon="-1.94203">
        <ele>5</ele>
        <time>2018-04-22T08:14:53Z</time>
      </trkpt>
      <trkpt lat="46.70851" lon="-1.94195">
        <ele>4</ele>
        <time>2018-04-22T08:15:53Z</time>
      </trkpt>
      <trkpt lat="46.70949" lon="-1.94171">
        <ele>3</ele>
        <time>2018-04-22T08:16:53Z</time>
      </trkpt>
      <trkpt lat="46.71302" lon="-1.94088">
        <ele>4</ele>
        <time>2018-04-22T08:17:53Z</time>
      </trkpt>
      <trkpt lat="46.71342" lon="-1.94082">
        <ele>4</ele>
        <time>2018-04-22T08:18:53Z</time>
      </trkpt>
      <trkpt lat="46.71366" lon="-1.94081">
        <ele>4</ele>
        <time>2018-04-22T08:19:53Z</time>
      </trkpt>
      <trkpt lat="46.71446" lon="-1.94064">
        <ele>3</ele>
        <time>2018-04-22T08:20:53Z</time>
      </trkpt>
      <trkpt lat="46.71585" lon="-1.94031">
        <ele>4</ele>
        <time>2018-04-22T08:21:53Z</time>
      </trkpt>
      <trkpt lat="46.71585" lon="-1.94031">
        <ele>4</ele>
        <time>2018-04-22T08:22:53Z</time>
      </trkpt>
      <trkpt lat="46.71759" lon="-1.93992">
        <ele>1</ele>
        <time>2018-04-22T08:23:53Z</time>
      </trkpt>
      <trkpt lat="46.71793" lon="-1.93979">
        <ele>1</ele>
        <time>2018-04-22T08:24:53Z</time>
      </trkpt>
      <trkpt lat="46.71798" lon="-1.9397">
        <ele>1</ele>
        <time>2018-04-22T08:25:53Z</time>
      </trkpt>
      <trkpt lat="46.71807" lon="-1.93965">
        <ele>1</ele>
        <time>2018-04-22T08:26:53Z</time>
      </trkpt>
      <trkpt lat="46.71815" lon="-1.93965">
        <ele>1</ele>
        <time>2018-04-22T08:27:53Z</time>
      </trkpt>
      <trkpt lat="46.71826" lon="-1.93971">
        <ele>1</ele>
        <time>2018-04-22T08:28:53Z</time>
      </trkpt>
      <trkpt lat="46.71909" lon="-1.93948">
        <ele>1</ele>
        <time>2018-04-22T08:29:53Z</time>
      </trkpt>
      <trkpt lat="46.71931" lon="-1.93946">
        <ele>1</ele>
        <time>2018-04-22T08:30:53Z</time>
      </trkpt>
      <trkpt lat="46.71991" lon="-1.93928">
        <ele>1</ele>
        <time>2018-04-22T08:31:53Z</time>
      </trkpt>
      <trkpt lat="46.72043" lon="-1.93923">
        <ele>2</ele>
        <time>2018-04-22T08:32:53Z</time>
      </trkpt>
      <trkpt lat="46.72078" lon="-1.93925">
        <ele>2</ele>
        <time>2018-04-22T08:33:53Z</time>
      </trkpt>
      <trkpt lat="46.72134" lon="-1.93938">
        <ele>2</ele>
        <time>2018-04-22T08:34:53Z</time>
      </trkpt>
      <trkpt lat="46.72167" lon="-1.93951">
        <ele>3</ele>
        <time>2018-04-22T08:35:53Z</time>
      </trkpt>
      <trkpt lat="46.72224" lon="-1.93984">
        <ele>1</ele>
        <time>2018-04-22T08:36:53Z</time>
      </trkpt>
      <trkpt lat="46.72283" lon="-1.94012">
        <ele>1</ele>
        <time>2018-04-22T08:37:53Z</time>
      </trkpt>
      <trkpt lat="46.72302" lon="-1.94025">
        <ele>2</ele>
        <time>2018-04-22T08:38:53Z</time>
      </trkpt>
      <trkpt lat="46.72334" lon="-1.94067">
        <ele>3</ele>
        <time>2018-04-22T08:39:53Z</time>
      </trkpt>
      <trkpt lat="46.72354" lon="-1.94098">
        <ele>3</ele>
        <time>2018-04-22T08:40:53Z</time>
      </trkpt>
      <trkpt lat="46.72382" lon="-1.94149">
        <ele>3</ele>
        <time>2018-04-22T08:41:53Z</time>
      </trkpt>
      <trkpt lat="46.72417" lon="-1.94215">
        <ele>3</ele>
        <time>2018-04-22T08:42:53Z</time>
      </trkpt>
      <trkpt lat="46.72463" lon="-1.94292">
        <ele>4</ele>
        <time>2018-04-22T08:43:53Z</time>
      </trkpt>
      <trkpt lat="46.72472" lon="-1.94301">
        <ele>4</ele>
        <time>2018-04-22T08:44:53Z</time>
      </trkpt>
      <trkpt lat="46.72485" lon="-1.94306">
        <ele>4</ele>
        <time>2018-04-22T08:45:53Z</time>
      </trkpt>
      <trkpt lat="46.72496" lon="-1.94356">
        <ele>4</ele>
        <time>2018-04-22T08:46:53Z</time>
      </trkpt>
      <trkpt lat="46.7253" lon="-1.9441">
        <ele>4</ele>
        <time>2018-04-22T08:47:53Z</time>
      </trkpt>
      <trkpt lat="46.72542" lon="-1.94394">
        <ele>4</ele>
        <time>2018-04-22T08:48:53Z</time>
      </trkpt>
      <trkpt lat="46.72552" lon="-1.94374">
        <ele>4</ele>
        <time>2018-04-22T08:49:53Z</time>
      </trkpt>
      <trkpt lat="46.7256" lon="-1.94365">
        <ele>4</ele>
        <time>2018-04-22T08:50:53Z</time>
      </trkpt>
      <trkpt lat="46.72707" lon="-1.94325">
        <ele>3</ele>
        <time>2018-04-22T08:51:53Z</time>
      </trkpt>
      <trkpt lat="46.72724" lon="-1.94328">
        <ele>3</ele>
        <time>2018-04-22T08:52:53Z</time>
      </trkpt>
      <trkpt lat="46.72739" lon="-1.94337">
        <ele>3</ele>
        <time>2018-04-22T08:53:53Z</time>
      </trkpt>
      <trkpt lat="46.72815" lon="-1.94394">
        <ele>2</ele>
        <time>2018-04-22T08:54:53Z</time>
      </trkpt>
      <trkpt lat="46.72965" lon="-1.94487">
        <ele>1</ele>
        <time>2018-04-22T08:55:53Z</time>
      </trkpt>
      <trkpt lat="46.73" lon="-1.94522">
        <ele>2</ele>
        <time>2018-04-22T08:56:53Z</time>
      </trkpt>
      <trkpt lat="46.7307" lon="-1.94605">
        <ele>4</ele>
        <time>2018-04-22T08:57:53Z</time>
      </trkpt>
      <trkpt lat="46.7309" lon="-1.94631">
        <ele>5</ele>
        <time>2018-04-22T08:58:53Z</time>
      </trkpt>
      <trkpt lat="46.73123" lon="-1.94679">
        <ele>5</ele>
        <time>2018-04-22T08:59:53Z</time>
      </trkpt>
      <trkpt lat="46.73123" lon="-1.94679">
        <ele>5</ele>
        <time>2018-04-22T09:00:53Z</time>
      </trkpt>
      <trkpt lat="46.73134" lon="-1.94695">
        <ele>5</ele>
        <time>2018-04-22T09:01:53Z</time>
      </trkpt>
      <trkpt lat="46.73157" lon="-1.94718">
        <ele>5</ele>
        <time>2018-04-22T09:02:53Z</time>
      </trkpt>
      <trkpt lat="46.73182" lon="-1.94736">
        <ele>6</ele>
        <time>2018-04-22T09:03:53Z</time>
      </trkpt>
      <trkpt lat="46.73194" lon="-1.94741">
        <ele>7</ele>
        <time>2018-04-22T09:04:53Z</time>
      </trkpt>
      <trkpt lat="46.73269" lon="-1.94802">
        <ele>9</ele>
        <time>2018-04-22T09:05:53Z</time>
      </trkpt>
      <trkpt lat="46.73305" lon="-1.94841">
        <ele>6</ele>
        <time>2018-04-22T09:06:53Z</time>
      </trkpt>
      <trkpt lat="46.73326" lon="-1.94872">
        <ele>5</ele>
        <time>2018-04-22T09:07:53Z</time>
      </trkpt>
      <trkpt lat="46.73354" lon="-1.9492">
        <ele>4</ele>
        <time>2018-04-22T09:08:53Z</time>
      </trkpt>
      <trkpt lat="46.73366" lon="-1.9495">
        <ele>4</ele>
        <time>2018-04-22T09:09:53Z</time>
      </trkpt>
      <trkpt lat="46.73375" lon="-1.94987">
        <ele>4</ele>
        <time>2018-04-22T09:10:53Z</time>
      </trkpt>
      <trkpt lat="46.73387" lon="-1.95052">
        <ele>4</ele>
        <time>2018-04-22T09:11:53Z</time>
      </trkpt>
      <trkpt lat="46.73429" lon="-1.95059">
        <ele>5</ele>
        <time>2018-04-22T09:12:53Z</time>
      </trkpt>
      <trkpt lat="46.73477" lon="-1.95061">
        <ele>4</ele>
        <time>2018-04-22T09:13:53Z</time>
      </trkpt>
      <trkpt lat="46.73497" lon="-1.95055">
        <ele>4</ele>
        <time>2018-04-22T09:14:53Z</time>
      </trkpt>
      <trkpt lat="46.73499" lon="-1.95056">
        <ele>4</ele>
        <time>2018-04-22T09:15:53Z</time>
      </trkpt>
      <trkpt lat="46.7351" lon="-1.95075">
        <ele>4</ele>
        <time>2018-04-22T09:16:53Z</time>
      </trkpt>
      <trkpt lat="46.73549" lon="-1.95091">
        <ele>3</ele>
        <time>2018-04-22T09:17:53Z</time>
      </trkpt>
      <trkpt lat="46.73778" lon="-1.95229">
        <ele>4</ele>
        <time>2018-04-22T09:18:53Z</time>
      </trkpt>
      <trkpt lat="46.73872" lon="-1.95264">
        <ele>3</ele>
        <time>2018-04-22T09:19:53Z</time>
      </trkpt>
      <trkpt lat="46.73989" lon="-1.95314">
        <ele>5</ele>
        <time>2018-04-22T09:20:53Z</time>
      </trkpt>
      <trkpt lat="46.74103" lon="-1.95397">
        <ele>4</ele>
        <time>2018-04-22T09:21:53Z</time>
      </trkpt>
      <trkpt lat="46.74184" lon="-1.95449">
        <ele>2</ele>
        <time>2018-04-22T09:22:53Z</time>
      </trkpt>
      <trkpt lat="46.74285" lon="-1.95482">
        <ele>1</ele>
        <time>2018-04-22T09:23:53Z</time>
      </trkpt>
      <trkpt lat="46.74397" lon="-1.95503">
        <ele>2</ele>
        <time>2018-04-22T09:24:53Z</time>
      </trkpt>
      <trkpt lat="46.74449" lon="-1.95517">
        <ele>2</ele>
        <time>2018-04-22T09:25:53Z</time>
      </trkpt>
      <trkpt lat="46.74458" lon="-1.95514">
        <ele>2</ele>
        <time>2018-04-22T09:26:53Z</time>
      </trkpt>
      <trkpt lat="46.74465" lon="-1.9552">
        <ele>1</ele>
        <time>2018-04-22T09:27:53Z</time>
      </trkpt>
      <trkpt lat="46.74467" lon="-1.95525">
        <ele>1</ele>
        <time>2018-04-22T09:28:53Z</time>
      </trkpt>
      <trkpt lat="46.74469" lon="-1.95535">
        <ele>1</ele>
        <time>2018-04-22T09:29:53Z</time>
      </trkpt>
      <trkpt lat="46.74468" lon="-1.9554">
        <ele>1</ele>
        <time>2018-04-22T09:30:53Z</time>
      </trkpt>
      <trkpt lat="46.74472" lon="-1.95541">
        <ele>1</ele>
        <time>2018-04-22T09:31:53Z</time>
      </trkpt>
      <trkpt lat="46.74638" lon="-1.95578">
        <ele>2</ele>
        <time>2018-04-22T09:32:53Z</time>
      </trkpt>
      <trkpt lat="46.74685" lon="-1.95579">
        <ele>2</ele>
        <time>2018-04-22T09:33:53Z</time>
      </trkpt>
      <trkpt lat="46.7477" lon="-1.95572">
        <ele>1</ele>
        <time>2018-04-22T09:34:53Z</time>
      </trkpt>
      <trkpt lat="46.74806" lon="-1.95576">
        <ele>2</ele>
        <time>2018-04-22T09:35:53Z</time>
      </trkpt>
      <trkpt lat="46.74835" lon="-1.95585">
        <ele>2</ele>
        <time>2018-04-22T09:36:53Z</time>
      </trkpt>
      <trkpt lat="46.75006" lon="-1.95668">
        <ele>1</ele>
        <time>2018-04-22T09:37:53Z</time>
      </trkpt>
      <trkpt lat="46.7506" lon="-1.95692">
        <ele>1</ele>
        <time>2018-04-22T09:38:53Z</time>
      </trkpt>
      <trkpt lat="46.75087" lon="-1.95702">
        <ele>1</ele>
        <time>2018-04-22T09:39:53Z</time>
      </trkpt>
      <trkpt lat="46.75116" lon="-1.95707">
        <ele>1</ele>
        <time>2018-04-22T09:40:53Z</time>
      </trkpt>
      <trkpt lat="46.75225" lon="-1.95712">
        <ele>1</ele>
        <time>2018-04-22T09:41:53Z</time>
      </trkpt>
      <trkpt lat="46.75263" lon="-1.9572">
        <ele>1</ele>
        <time>2018-04-22T09:42:53Z</time>
      </trkpt>
      <trkpt lat="46.75433" lon="-1.95807">
        <ele>2</ele>
        <time>2018-04-22T09:43:53Z</time>
      </trkpt>
      <trkpt lat="46.75532" lon="-1.95861">
        <ele>2</ele>
        <time>2018-04-22T09:44:53Z</time>
      </trkpt>
      <trkpt lat="46.75698" lon="-1.95907">
        <ele>3</ele>
        <time>2018-04-22T09:45:53Z</time>
      </trkpt>
      <trkpt lat="46.75744" lon="-1.95914">
        <ele>2</ele>
        <time>2018-04-22T09:46:53Z</time>
      </trkpt>
      <trkpt lat="46.75989" lon="-1.95928">
        <ele>5</ele>
        <time>2018-04-22T09:47:53Z</time>
      </trkpt>
      <trkpt lat="46.7603" lon="-1.95935">
        <ele>5</ele>
        <time>2018-04-22T09:48:53Z</time>
      </trkpt>
      <trkpt lat="46.76105" lon="-1.95961">
        <ele>4</ele>
        <time>2018-04-22T09:49:53Z</time>
      </trkpt>
      <trkpt lat="46.76148" lon="-1.95979">
        <ele>3</ele>
        <time>2018-04-22T09:50:53Z</time>
      </trkpt>
      <trkpt lat="46.76219" lon="-1.96014">
        <ele>4</ele>
        <time>2018-04-22T09:51:53Z</time>
      </trkpt>
      <trkpt lat="46.76318" lon="-1.96079">
        <ele>3</ele>
        <time>2018-04-22T09:52:53Z</time>
      </trkpt>
      <trkpt lat="46.76378" lon="-1.96105">
        <ele>2</ele>
        <time>2018-04-22T09:53:53Z</time>
      </trkpt>
      <trkpt lat="46.76682" lon="-1.96215">
        <ele>3</ele>
        <time>2018-04-22T09:54:53Z</time>
      </trkpt>
      <trkpt lat="46.76809" lon="-1.96258">
        <ele>3</ele>
        <time>2018-04-22T09:55:53Z</time>
      </trkpt>
      <trkpt lat="46.76892" lon="-1.96275">
        <ele>4</ele>
        <time>2018-04-22T09:56:53Z</time>
      </trkpt>
      <trkpt lat="46.77099" lon="-1.96301">
        <ele>6</ele>
        <time>2018-04-22T09:57:53Z</time>
      </trkpt>
      <trkpt lat="46.77129" lon="-1.96306">
        <ele>6</ele>
        <time>2018-04-22T09:58:53Z</time>
      </trkpt>
      <trkpt lat="46.7714" lon="-1.96312">
        <ele>6</ele>
        <time>2018-04-22T09:59:53Z</time>
      </trkpt>
      <trkpt lat="46.77153" lon="-1.96315">
        <ele>6</ele>
        <time>2018-04-22T10:00:53Z</time>
      </trkpt>
      <trkpt lat="46.77157" lon="-1.96302">
        <ele>6</ele>
        <time>2018-04-22T10:01:53Z</time>
      </trkpt>
      <trkpt lat="46.77166" lon="-1.96297">
        <ele>6</ele>
        <time>2018-04-22T10:02:53Z</time>
      </trkpt>
      <trkpt lat="46.77175" lon="-1.96303">
        <ele>6</ele>
        <time>2018-04-22T10:03:53Z</time>
      </trkpt>
      <trkpt lat="46.77178" lon="-1.96319">
        <ele>6</ele>
        <time>2018-04-22T10:04:53Z</time>
      </trkpt>
      <trkpt lat="46.77176" lon="-1.96323">
        <ele>6</ele>
        <time>2018-04-22T10:05:53Z</time>
      </trkpt>
      <trkpt lat="46.77192" lon="-1.96329">
        <ele>6</ele>
        <time>2018-04-22T10:06:53Z</time>
      </trkpt>
      <trkpt lat="46.77223" lon="-1.96351">
        <ele>5</ele>
        <time>2018-04-22T10:07:53Z</time>
      </trkpt>
      <trkpt lat="46.77305" lon="-1.96427">
        <ele>5</ele>
        <time>2018-04-22T10:08:53Z</time>
      </trkpt>
      <trkpt lat="46.77479" lon="-1.966">
        <ele>6</ele>
        <time>2018-04-22T10:09:53Z</time>
      </trkpt>
      <trkpt lat="46.7766" lon="-1.96774">
        <ele>3</ele>
        <time>2018-04-22T10:10:53Z</time>
      </trkpt>
      <trkpt lat="46.77713" lon="-1.96822">
        <ele>3</ele>
        <time>2018-04-22T10:11:53Z</time>
      </trkpt>
      <trkpt lat="46.77751" lon="-1.9685">
        <ele>4</ele>
        <time>2018-04-22T10:12:53Z</time>
      </trkpt>
      <trkpt lat="46.7779" lon="-1.96871">
        <ele>4</ele>
        <time>2018-04-22T10:13:53Z</time>
      </trkpt>
      <trkpt lat="46.77912" lon="-1.9692">
        <ele>3</ele>
        <time>2018-04-22T10:14:53Z</time>
      </trkpt>
      <trkpt lat="46.77947" lon="-1.96937">
        <ele>3</ele>
        <time>2018-04-22T10:15:53Z</time>
      </trkpt>
      <trkpt lat="46.78223" lon="-1.97089">
        <ele>3</ele>
        <time>2018-04-22T10:16:53Z</time>
      </trkpt>
      <trkpt lat="46.78399" lon="-1.97188">
        <ele>5</ele>
        <time>2018-04-22T10:17:53Z</time>
      </trkpt>
      <trkpt lat="46.78429" lon="-1.97203">
        <ele>5</ele>
        <time>2018-04-22T10:18:53Z</time>
      </trkpt>
      <trkpt lat="46.78486" lon="-1.97229">
        <ele>4</ele>
        <time>2018-04-22T10:19:53Z</time>
      </trkpt>
      <trkpt lat="46.7853" lon="-1.97246">
        <ele>5</ele>
        <time>2018-04-22T10:20:53Z</time>
      </trkpt>
      <trkpt lat="46.78861" lon="-1.9737">
        <ele>4</ele>
        <time>2018-04-22T10:21:53Z</time>
      </trkpt>
      <trkpt lat="46.78956" lon="-1.97409">
        <ele>2</ele>
        <time>2018-04-22T10:22:53Z</time>
      </trkpt>
      <trkpt lat="46.78993" lon="-1.97435">
        <ele>2</ele>
        <time>2018-04-22T10:23:53Z</time>
      </trkpt>
      <trkpt lat="46.79019" lon="-1.97462">
        <ele>1</ele>
        <time>2018-04-22T10:24:53Z</time>
      </trkpt>
      <trkpt lat="46.79019" lon="-1.97462">
        <ele>1</ele>
        <time>2018-04-22T10:25:53Z</time>
      </trkpt>
      <trkpt lat="46.79024" lon="-1.97468">
        <ele>1</ele>
        <time>2018-04-22T10:26:53Z</time>
      </trkpt>
      <trkpt lat="46.7905" lon="-1.97507">
        <ele>1</ele>
        <time>2018-04-22T10:27:53Z</time>
      </trkpt>
      <trkpt lat="46.79079" lon="-1.97562">
        <ele>1</ele>
        <time>2018-04-22T10:28:53Z</time>
      </trkpt>
      <trkpt lat="46.79126" lon="-1.97642">
        <ele>1.9</ele>
        <time>2018-04-22T10:29:53Z</time>
      </trkpt>
      <trkpt lat="46.79162" lon="-1.97707">
        <ele>2</ele>
        <time>2018-04-22T10:30:53Z</time>
      </trkpt>
      <trkpt lat="46.79208" lon="-1.97803">
        <ele>1</ele>
        <time>2018-04-22T10:31:53Z</time>
      </trkpt>
      <trkpt lat="46.79249" lon="-1.97883">
        <ele>1</ele>
        <time>2018-04-22T10:32:53Z</time>
      </trkpt>
      <trkpt lat="46.79275" lon="-1.97915">
        <ele>1</ele>
        <time>2018-04-22T10:33:53Z</time>
      </trkpt>
      <trkpt lat="46.79308" lon="-1.97928">
        <ele>1</ele>
        <time>2018-04-22T10:34:53Z</time>
      </trkpt>
      <trkpt lat="46.79341" lon="-1.97926">
        <ele>1</ele>
        <time>2018-04-22T10:35:53Z</time>
      </trkpt>
      <trkpt lat="46.79506" lon="-1.97906">
        <ele>1.9</ele>
        <time>2018-04-22T10:36:53Z</time>
      </trkpt>
      <trkpt lat="46.7955" lon="-1.97899">
        <ele>1.9</ele>
        <time>2018-04-22T10:37:53Z</time>
      </trkpt>
      <trkpt lat="46.79596" lon="-1.97889">
        <ele>2</ele>
        <time>2018-04-22T10:38:53Z</time>
      </trkpt>
      <trkpt lat="46.79716" lon="-1.97838">
        <ele>1</ele>
        <time>2018-04-22T10:39:53Z</time>
      </trkpt>
      <trkpt lat="46.79763" lon="-1.97823">
        <ele>1</ele>
        <time>2018-04-22T10:40:53Z</time>
      </trkpt>
      <trkpt lat="46.798" lon="-1.9782">
        <ele>2</ele>
        <time>2018-04-22T10:41:53Z</time>
      </trkpt>
      <trkpt lat="46.79838" lon="-1.97831">
        <ele>2</ele>
        <time>2018-04-22T10:42:53Z</time>
      </trkpt>
      <trkpt lat="46.79877" lon="-1.97852">
        <ele>2</ele>
        <time>2018-04-22T10:43:53Z</time>
      </trkpt>
      <trkpt lat="46.79917" lon="-1.9788">
        <ele>2</ele>
        <time>2018-04-22T10:44:53Z</time>
      </trkpt>
      <trkpt lat="46.79949" lon="-1.97912">
        <ele>2</ele>
        <time>2018-04-22T10:45:53Z</time>
      </trkpt>
      <trkpt lat="46.8001" lon="-1.97983">
        <ele>2.1</ele>
        <time>2018-04-22T10:46:53Z</time>
      </trkpt>
      <trkpt lat="46.80042" lon="-1.98009">
        <ele>2.3</ele>
        <time>2018-04-22T10:47:53Z</time>
      </trkpt>
      <trkpt lat="46.80112" lon="-1.98041">
        <ele>2</ele>
        <time>2018-04-22T10:48:53Z</time>
      </trkpt>
      <trkpt lat="46.80223" lon="-1.98085">
        <ele>2</ele>
        <time>2018-04-22T10:49:53Z</time>
      </trkpt>
      <trkpt lat="46.80254" lon="-1.98102">
        <ele>2</ele>
        <time>2018-04-22T10:50:53Z</time>
      </trkpt>
      <trkpt lat="46.80281" lon="-1.98126">
        <ele>2</ele>
        <time>2018-04-22T10:51:53Z</time>
      </trkpt>
      <trkpt lat="46.80372" lon="-1.98228">
        <ele>2</ele>
        <time>2018-04-22T10:52:53Z</time>
      </trkpt>
      <trkpt lat="46.80434" lon="-1.98303">
        <ele>1</ele>
        <time>2018-04-22T10:53:53Z</time>
      </trkpt>
      <trkpt lat="46.80459" lon="-1.98323">
        <ele>1</ele>
        <time>2018-04-22T10:54:53Z</time>
      </trkpt>
      <trkpt lat="46.80468" lon="-1.98317">
        <ele>1</ele>
        <time>2018-04-22T10:55:53Z</time>
      </trkpt>
      <trkpt lat="46.80478" lon="-1.98316">
        <ele>1</ele>
        <time>2018-04-22T10:56:53Z</time>
      </trkpt>
      <trkpt lat="46.80487" lon="-1.98326">
        <ele>1</ele>
        <time>2018-04-22T10:57:53Z</time>
      </trkpt>
      <trkpt lat="46.8049" lon="-1.98348">
        <ele>1</ele>
        <time>2018-04-22T10:58:53Z</time>
      </trkpt>
      <trkpt lat="46.80489" lon="-1.98357">
        <ele>1</ele>
        <time>2018-04-22T10:59:53Z</time>
      </trkpt>
      <trkpt lat="46.80512" lon="-1.98392">
        <ele>2.5</ele>
        <time>2018-04-22T11:00:53Z</time>
      </trkpt>
      <trkpt lat="46.80524" lon="-1.98402">
        <ele>2.1</ele>
        <time>2018-04-22T11:01:53Z</time>
      </trkpt>
      <trkpt lat="46.808" lon="-1.98697">
        <ele>1.9</ele>
        <time>2018-04-22T11:02:53Z</time>
      </trkpt>
      <trkpt lat="46.80837" lon="-1.98733">
        <ele>2</ele>
        <time>2018-04-22T11:03:53Z</time>
      </trkpt>
      <trkpt lat="46.81054" lon="-1.9891">
        <ele>1</ele>
        <time>2018-04-22T11:04:53Z</time>
      </trkpt>
      <trkpt lat="46.81082" lon="-1.98919">
        <ele>1</ele>
        <time>2018-04-22T11:05:53Z</time>
      </trkpt>
      <trkpt lat="46.81101" lon="-1.98919">
        <ele>1</ele>
        <time>2018-04-22T11:06:53Z</time>
      </trkpt>
      <trkpt lat="46.81118" lon="-1.98914">
        <ele>1</ele>
        <time>2018-04-22T11:07:53Z</time>
      </trkpt>
      <trkpt lat="46.81146" lon="-1.98879">
        <ele>1</ele>
        <time>2018-04-22T11:08:53Z</time>
      </trkpt>
      <trkpt lat="46.81162" lon="-1.98849">
        <ele>1</ele>
        <time>2018-04-22T11:09:53Z</time>
      </trkpt>
      <trkpt lat="46.81183" lon="-1.98825">
        <ele>2</ele>
        <time>2018-04-22T11:10:53Z</time>
      </trkpt>
      <trkpt lat="46.81194" lon="-1.98817">
        <ele>2</ele>
        <time>2018-04-22T11:11:53Z</time>
      </trkpt>
      <trkpt lat="46.81213" lon="-1.98818">
        <ele>1.3</ele>
        <time>2018-04-22T11:12:53Z</time>
      </trkpt>
      <trkpt lat="46.81242" lon="-1.98831">
        <ele>1.7</ele>
        <time>2018-04-22T11:13:53Z</time>
      </trkpt>
      <trkpt lat="46.81529" lon="-1.99117">
        <ele>2</ele>
        <time>2018-04-22T11:14:53Z</time>
      </trkpt>
      <trkpt lat="46.81591" lon="-1.99177">
        <ele>1</ele>
        <time>2018-04-22T11:15:53Z</time>
      </trkpt>
      <trkpt lat="46.81621" lon="-1.99202">
        <ele>2</ele>
        <time>2018-04-22T11:16:53Z</time>
      </trkpt>
      <trkpt lat="46.81657" lon="-1.99222">
        <ele>2</ele>
        <time>2018-04-22T11:17:53Z</time>
      </trkpt>
      <trkpt lat="46.81714" lon="-1.9924">
        <ele>1</ele>
        <time>2018-04-22T11:18:53Z</time>
      </trkpt>
      <trkpt lat="46.81867" lon="-1.99279">
        <ele>2</ele>
        <time>2018-04-22T11:19:53Z</time>
      </trkpt>
      <trkpt lat="46.81899" lon="-1.99283">
        <ele>2</ele>
        <time>2018-04-22T11:20:53Z</time>
      </trkpt>
      <trkpt lat="46.81906" lon="-1.99281">
        <ele>2</ele>
        <time>2018-04-22T11:21:53Z</time>
      </trkpt>
      <trkpt lat="46.81927" lon="-1.99305">
        <ele>2</ele>
        <time>2018-04-22T11:22:53Z</time>
      </trkpt>
      <trkpt lat="46.81957" lon="-1.9932">
        <ele>2</ele>
        <time>2018-04-22T11:23:53Z</time>
      </trkpt>
      <trkpt lat="46.82" lon="-1.99339">
        <ele>2</ele>
        <time>2018-04-22T11:24:53Z</time>
      </trkpt>
      <trkpt lat="46.8212" lon="-1.99381">
        <ele>1</ele>
        <time>2018-04-22T11:25:53Z</time>
      </trkpt>
      <trkpt lat="46.82181" lon="-1.99421">
        <ele>1</ele>
        <time>2018-04-22T11:26:53Z</time>
      </trkpt>
      <trkpt lat="46.8225" lon="-1.99473">
        <ele>2</ele>
        <time>2018-04-22T11:27:53Z</time>
      </trkpt>
      <trkpt lat="46.82315" lon="-1.99518">
        <ele>2</ele>
        <time>2018-04-22T11:28:53Z</time>
      </trkpt>
      <trkpt lat="46.82338" lon="-1.99531">
        <ele>1</ele>
        <time>2018-04-22T11:29:53Z</time>
      </trkpt>
      <trkpt lat="46.82367" lon="-1.99547">
        <ele>1</ele>
        <time>2018-04-22T11:30:53Z</time>
      </trkpt>
      <trkpt lat="46.82426" lon="-1.99562">
        <ele>2</ele>
        <time>2018-04-22T11:31:53Z</time>
      </trkpt>
      <trkpt lat="46.82432" lon="-1.99558">
        <ele>2</ele>
        <time>2018-04-22T11:32:53Z</time>
      </trkpt>
      <trkpt lat="46.82438" lon="-1.99558">
        <ele>1</ele>
        <time>2018-04-22T11:33:53Z</time>
      </trkpt>
      <trkpt lat="46.82444" lon="-1.99563">
        <ele>1</ele>
        <time>2018-04-22T11:34:53Z</time>
      </trkpt>
      <trkpt lat="46.82446" lon="-1.9957">
        <ele>1</ele>
        <time>2018-04-22T11:35:53Z</time>
      </trkpt>
      <trkpt lat="46.82451" lon="-1.99577">
        <ele>2</ele>
        <time>2018-04-22T11:36:53Z</time>
      </trkpt>
      <trkpt lat="46.82481" lon="-1.99601">
        <ele>1</ele>
        <time>2018-04-22T11:37:53Z</time>
      </trkpt>
      <trkpt lat="46.82537" lon="-1.99627">
        <ele>1</ele>
        <time>2018-04-22T11:38:53Z</time>
      </trkpt>
      <trkpt lat="46.82537" lon="-1.99627">
        <ele>1</ele>
        <time>2018-04-22T11:39:53Z</time>
      </trkpt>
      <trkpt lat="46.82783" lon="-1.99743">
        <ele>2</ele>
        <time>2018-04-22T11:40:53Z</time>
      </trkpt>
      <trkpt lat="46.82837" lon="-1.99772">
        <ele>2</ele>
        <time>2018-04-22T11:41:53Z</time>
      </trkpt>
      <trkpt lat="46.82925" lon="-1.99814">
        <ele>1</ele>
        <time>2018-04-22T11:42:53Z</time>
      </trkpt>
      <trkpt lat="46.83302" lon="-1.99992">
        <ele>1</ele>
        <time>2018-04-22T11:43:53Z</time>
      </trkpt>
      <trkpt lat="46.83383" lon="-2.00032">
        <ele>1</ele>
        <time>2018-04-22T11:44:53Z</time>
      </trkpt>
      <trkpt lat="46.83562" lon="-2.00115">
        <ele>1</ele>
        <time>2018-04-22T11:45:53Z</time>
      </trkpt>
      <trkpt lat="46.83641" lon="-2.00155">
        <ele>1</ele>
        <time>2018-04-22T11:46:53Z</time>
      </trkpt>
      <trkpt lat="46.85111" lon="-2.00857">
        <ele>2</ele>
        <time>2018-04-22T11:47:53Z</time>
      </trkpt>
      <trkpt lat="46.85563" lon="-2.01069">
        <ele>1</ele>
        <time>2018-04-22T11:48:53Z</time>
      </trkpt>
      <trkpt lat="46.85668" lon="-2.01122">
        <ele>2</ele>
        <time>2018-04-22T11:49:53Z</time>
      </trkpt>
      <trkpt lat="46.86732" lon="-2.01634">
        <ele>1</ele>
        <time>2018-04-22T11:50:53Z</time>
      </trkpt>
      <trkpt lat="46.86751" lon="-2.0164">
        <ele>1</ele>
        <time>2018-04-22T11:51:53Z</time>
      </trkpt>
      <trkpt lat="46.86763" lon="-2.01642">
        <ele>1</ele>
        <time>2018-04-22T11:52:53Z</time>
      </trkpt>
      <trkpt lat="46.86779" lon="-2.01638">
        <ele>1</ele>
        <time>2018-04-22T11:53:53Z</time>
      </trkpt>
      <trkpt lat="46.86829" lon="-2.01597">
        <ele>1</ele>
        <time>2018-04-22T11:54:53Z</time>
      </trkpt>
      <trkpt lat="46.87034" lon="-2.0142">
        <ele>1</ele>
        <time>2018-04-22T11:55:53Z</time>
      </trkpt>
      <trkpt lat="46.87234" lon="-2.01265">
        <ele>2</ele>
        <time>2018-04-22T11:56:53Z</time>
      </trkpt>
      <trkpt lat="46.87252" lon="-2.01249">
        <ele>2</ele>
        <time>2018-04-22T11:57:53Z</time>
      </trkpt>
      <trkpt lat="46.87267" lon="-2.01231">
        <ele>2</ele>
        <time>2018-04-22T11:58:53Z</time>
      </trkpt>
      <trkpt lat="46.87335" lon="-2.01124">
        <ele>1.4</ele>
        <time>2018-04-22T11:59:53Z</time>
      </trkpt>
      <trkpt lat="46.87366" lon="-2.01086">
        <ele>1.8</ele>
        <time>2018-04-22T12:00:53Z</time>
      </trkpt>
      <trkpt lat="46.87407" lon="-2.01044">
        <ele>1</ele>
        <time>2018-04-22T12:01:53Z</time>
      </trkpt>
      <trkpt lat="46.87417" lon="-2.01038">
        <ele>1</ele>
        <time>2018-04-22T12:02:53Z</time>
      </trkpt>
      <trkpt lat="46.87637" lon="-2.0094">
        <ele>3</ele>
        <time>2018-04-22T12:03:53Z</time>
      </trkpt>
      <trkpt lat="46.87655" lon="-2.0093">
        <ele>3</ele>
        <time>2018-04-22T12:04:53Z</time>
      </trkpt>
      <trkpt lat="46.87661" lon="-2.00929">
        <ele>3</ele>
        <time>2018-04-22T12:05:53Z</time>
      </trkpt>
      <trkpt lat="46.87662" lon="-2.00926">
        <ele>3</ele>
        <time>2018-04-22T12:06:53Z</time>
      </trkpt>
      <trkpt lat="46.87666" lon="-2.00923">
        <ele>3</ele>
        <time>2018-04-22T12:07:53Z</time>
      </trkpt>
      <trkpt lat="46.8767" lon="-2.00925">
        <ele>3</ele>
        <time>2018-04-22T12:08:53Z</time>
      </trkpt>
      <trkpt lat="46.87672" lon="-2.0093">
        <ele>3</ele>
        <time>2018-04-22T12:09:53Z</time>
      </trkpt>
      <trkpt lat="46.87684" lon="-2.00927">
        <ele>3</ele>
        <time>2018-04-22T12:10:53Z</time>
      </trkpt>
      <trkpt lat="46.87784" lon="-2.00932">
        <ele>2</ele>
        <time>2018-04-22T12:11:53Z</time>
      </trkpt>
      <trkpt lat="46.87823" lon="-2.0093">
        <ele>2</ele>
        <time>2018-04-22T12:12:53Z</time>
      </trkpt>
      <trkpt lat="46.87841" lon="-2.00927">
        <ele>2</ele>
        <time>2018-04-22T12:13:53Z</time>
      </trkpt>
      <trkpt lat="46.87869" lon="-2.00917">
        <ele>2</ele>
        <time>2018-04-22T12:14:53Z</time>
      </trkpt>
      <trkpt lat="46.87909" lon="-2.00898">
        <ele>2</ele>
        <time>2018-04-22T12:15:53Z</time>
      </trkpt>
      <trkpt lat="46.88015" lon="-2.00833">
        <ele>2</ele>
        <time>2018-04-22T12:16:53Z</time>
      </trkpt>
      <trkpt lat="46.88055" lon="-2.00824">
        <ele>1</ele>
        <time>2018-04-22T12:17:53Z</time>
      </trkpt>
      <trkpt lat="46.88077" lon="-2.00817">
        <ele>1</ele>
        <time>2018-04-22T12:18:53Z</time>
      </trkpt>
      <trkpt lat="46.88097" lon="-2.00797">
        <ele>2</ele>
        <time>2018-04-22T12:19:53Z</time>
      </trkpt>
      <trkpt lat="46.881" lon="-2.00787">
        <ele>2</ele>
        <time>2018-04-22T12:20:53Z</time>
      </trkpt>
      <trkpt lat="46.88104" lon="-2.00784">
        <ele>2</ele>
        <time>2018-04-22T12:21:53Z</time>
      </trkpt>
      <trkpt lat="46.88111" lon="-2.00784">
        <ele>2</ele>
        <time>2018-04-22T12:22:53Z</time>
      </trkpt>
      <trkpt lat="46.88115" lon="-2.00788">
        <ele>2</ele>
        <time>2018-04-22T12:23:53Z</time>
      </trkpt>
      <trkpt lat="46.88117" lon="-2.00794">
        <ele>2</ele>
        <time>2018-04-22T12:24:53Z</time>
      </trkpt>
      <trkpt lat="46.88126" lon="-2.008">
        <ele>2</ele>
        <time>2018-04-22T12:25:53Z</time>
      </trkpt>
      <trkpt lat="46.88139" lon="-2.00805">
        <ele>2</ele>
        <time>2018-04-22T12:26:53Z</time>
      </trkpt>
      <trkpt lat="46.88368" lon="-2.00795">
        <ele>4</ele>
        <time>2018-04-22T12:27:53Z</time>
      </trkpt>
      <trkpt lat="46.88422" lon="-2.00787">
        <ele>4</ele>
        <time>2018-04-22T12:28:53Z</time>
      </trkpt>
      <trkpt lat="46.88572" lon="-2.00752">
        <ele>3</ele>
        <time>2018-04-22T12:29:53Z</time>
      </trkpt>
      <trkpt lat="46.88572" lon="-2.00752">
        <ele>3</ele>
        <time>2018-04-22T12:30:53Z</time>
      </trkpt>
      <trkpt lat="46.88642" lon="-2.00735">
        <ele>3</ele>
        <time>2018-04-22T12:31:53Z</time>
      </trkpt>
      <trkpt lat="46.88956" lon="-2.00634">
        <ele>2</ele>
        <time>2018-04-22T12:32:53Z</time>
      </trkpt>
      <trkpt lat="46.89152" lon="-2.00569">
        <ele>2</ele>
        <time>2018-04-22T12:33:53Z</time>
      </trkpt>
      <trkpt lat="46.89199" lon="-2.00549">
        <ele>1</ele>
        <time>2018-04-22T12:34:53Z</time>
      </trkpt>
      <trkpt lat="46.89519" lon="-2.00355">
        <ele>3</ele>
        <time>2018-04-22T12:35:53Z</time>
      </trkpt>
      <trkpt lat="46.89664" lon="-2.00293">
        <ele>3</ele>
        <time>2018-04-22T12:36:53Z</time>
      </trkpt>
      <trkpt lat="46.89893" lon="-2.00192">
        <ele>4</ele>
        <time>2018-04-22T12:37:53Z</time>
      </trkpt>
      <trkpt lat="46.89892" lon="-2.00184">
        <ele>4</ele>
        <time>2018-04-22T12:38:53Z</time>
      </trkpt>
      <trkpt lat="46.89894" lon="-2.00174">
        <ele>4</ele>
        <time>2018-04-22T12:39:53Z</time>
      </trkpt>
      <trkpt lat="46.89898" lon="-2.00167">
        <ele>4</ele>
        <time>2018-04-22T12:40:53Z</time>
      </trkpt>
      <trkpt lat="46.89904" lon="-2.00162">
        <ele>4</ele>
        <time>2018-04-22T12:41:53Z</time>
      </trkpt>
      <trkpt lat="46.89915" lon="-2.00162">
        <ele>4</ele>
        <time>2018-04-22T12:42:53Z</time>
      </trkpt>
      <trkpt lat="46.89921" lon="-2.00166">
        <ele>4</ele>
        <time>2018-04-22T12:43:53Z</time>
      </trkpt>
      <trkpt lat="46.89926" lon="-2.00179">
        <ele>4</ele>
        <time>2018-04-22T12:44:53Z</time>
      </trkpt>
      <trkpt lat="46.8996" lon="-2.00164">
        <ele>4</ele>
        <time>2018-04-22T12:45:53Z</time>
      </trkpt>
      <trkpt lat="46.90002" lon="-2.00149">
        <ele>4</ele>
        <time>2018-04-22T12:46:53Z</time>
      </trkpt>
      <trkpt lat="46.90149" lon="-2.00105">
        <ele>6</ele>
        <time>2018-04-22T12:47:53Z</time>
      </trkpt>
      <trkpt lat="46.90174" lon="-2.00099">
        <ele>6</ele>
        <time>2018-04-22T12:48:53Z</time>
      </trkpt>
      <trkpt lat="46.90242" lon="-2.00088">
        <ele>7</ele>
        <time>2018-04-22T12:49:53Z</time>
      </trkpt>
      <trkpt lat="46.9024" lon="-2.00136">
        <ele>6</ele>
        <time>2018-04-22T12:50:53Z</time>
      </trkpt>
      <trkpt lat="46.90249" lon="-2.00286">
        <ele>6</ele>
        <time>2018-04-22T12:51:53Z</time>
      </trkpt>
      <trkpt lat="46.90252" lon="-2.00313">
        <ele>5</ele>
        <time>2018-04-22T12:52:53Z</time>
      </trkpt>
      <trkpt lat="46.90252" lon="-2.00313">
        <ele>5</ele>
        <time>2018-04-22T12:53:53Z</time>
      </trkpt>
      <trkpt lat="46.90263" lon="-2.00394">
        <ele>6</ele>
        <time>2018-04-22T12:54:53Z</time>
      </trkpt>
      <trkpt lat="46.90256" lon="-2.00509">
        <ele>6</ele>
        <time>2018-04-22T12:55:53Z</time>
      </trkpt>
      <trkpt lat="46.90254" lon="-2.00594">
        <ele>5</ele>
        <time>2018-04-22T12:56:53Z</time>
      </trkpt>
      <trkpt lat="46.90254" lon="-2.00612">
        <ele>6</ele>
        <time>2018-04-22T12:57:53Z</time>
      </trkpt>
      <trkpt lat="46.90318" lon="-2.0098">
        <ele>7</ele>
        <time>2018-04-22T12:58:53Z</time>
      </trkpt>
      <trkpt lat="46.90389" lon="-2.01378">
        <ele>10</ele>
        <time>2018-04-22T12:59:53Z</time>
      </trkpt>
      <trkpt lat="46.90398" lon="-2.01404">
        <ele>11</ele>
        <time>2018-04-22T13:00:53Z</time>
      </trkpt>
      <trkpt lat="46.90403" lon="-2.01413">
        <ele>11</ele>
        <time>2018-04-22T13:01:53Z</time>
      </trkpt>
      <trkpt lat="46.90409" lon="-2.01419">
        <ele>11</ele>
        <time>2018-04-22T13:02:53Z</time>
      </trkpt>
      <trkpt lat="46.90411" lon="-2.01426">
        <ele>12</ele>
        <time>2018-04-22T13:03:53Z</time>
      </trkpt>
      <trkpt lat="46.90411" lon="-2.01436">
        <ele>12</ele>
        <time>2018-04-22T13:04:53Z</time>
      </trkpt>
      <trkpt lat="46.90406" lon="-2.01446">
        <ele>11</ele>
        <time>2018-04-22T13:05:53Z</time>
      </trkpt>
      <trkpt lat="46.90407" lon="-2.01478">
        <ele>11</ele>
        <time>2018-04-22T13:06:53Z</time>
      </trkpt>
      <trkpt lat="46.90533" lon="-2.02186">
        <ele>17</ele>
        <time>2018-04-22T13:07:53Z</time>
      </trkpt>
      <trkpt lat="46.90552" lon="-2.0226">
        <ele>18</ele>
        <time>2018-04-22T13:08:53Z</time>
      </trkpt>
      <trkpt lat="46.9063" lon="-2.02501">
        <ele>20</ele>
        <time>2018-04-22T13:09:53Z</time>
      </trkpt>
      <trkpt lat="46.90655" lon="-2.02562">
        <ele>19</ele>
        <time>2018-04-22T13:10:53Z</time>
      </trkpt>
      <trkpt lat="46.90845" lon="-2.02965">
        <ele>18</ele>
        <time>2018-04-22T13:11:53Z</time>
      </trkpt>
      <trkpt lat="46.90851" lon="-2.02977">
        <ele>18</ele>
        <time>2018-04-22T13:12:53Z</time>
      </trkpt>
      <trkpt lat="46.90862" lon="-2.02988">
        <ele>18</ele>
        <time>2018-04-22T13:13:53Z</time>
      </trkpt>
      <trkpt lat="46.90865" lon="-2.02984">
        <ele>18</ele>
        <time>2018-04-22T13:14:53Z</time>
      </trkpt>
      <trkpt lat="46.90869" lon="-2.02982">
        <ele>18</ele>
        <time>2018-04-22T13:15:53Z</time>
      </trkpt>
      <trkpt lat="46.90873" lon="-2.02983">
        <ele>17</ele>
        <time>2018-04-22T13:16:53Z</time>
      </trkpt>
      <trkpt lat="46.90876" lon="-2.02987">
        <ele>17</ele>
        <time>2018-04-22T13:17:53Z</time>
      </trkpt>
      <trkpt lat="46.90878" lon="-2.02997">
        <ele>17</ele>
        <time>2018-04-22T13:18:53Z</time>
      </trkpt>
      <trkpt lat="46.90876" lon="-2.03005">
        <ele>18</ele>
        <time>2018-04-22T13:19:53Z</time>
      </trkpt>
      <trkpt lat="46.90871" lon="-2.03009">
        <ele>18</ele>
        <time>2018-04-22T13:20:53Z</time>
      </trkpt>
      <trkpt lat="46.90875" lon="-2.03028">
        <ele>18</ele>
        <time>2018-04-22T13:21:53Z</time>
      </trkpt>
      <trkpt lat="46.9101" lon="-2.03315">
        <ele>17</ele>
        <time>2018-04-22T13:22:53Z</time>
      </trkpt>
      <trkpt lat="46.91036" lon="-2.03375">
        <ele>15</ele>
        <time>2018-04-22T13:23:53Z</time>
      </trkpt>
      <trkpt lat="46.9114" lon="-2.0359">
        <ele>11</ele>
        <time>2018-04-22T13:24:53Z</time>
      </trkpt>
      <trkpt lat="46.91273" lon="-2.03875">
        <ele>8</ele>
        <time>2018-04-22T13:25:53Z</time>
      </trkpt>
      <trkpt lat="46.91292" lon="-2.03907">
        <ele>8</ele>
        <time>2018-04-22T13:26:53Z</time>
      </trkpt>
      <trkpt lat="46.91316" lon="-2.03929">
        <ele>8</ele>
        <time>2018-04-22T13:27:53Z</time>
      </trkpt>
      <trkpt lat="46.91338" lon="-2.03945">
        <ele>8</ele>
        <time>2018-04-22T13:28:53Z</time>
      </trkpt>
      <trkpt lat="46.91393" lon="-2.0398">
        <ele>7</ele>
        <time>2018-04-22T13:29:53Z</time>
      </trkpt>
      <trkpt lat="46.91453" lon="-2.04013">
        <ele>6</ele>
        <time>2018-04-22T13:30:53Z</time>
      </trkpt>
      <trkpt lat="46.915" lon="-2.04032">
        <ele>6</ele>
        <time>2018-04-22T13:31:53Z</time>
      </trkpt>
      <trkpt lat="46.91505" lon="-2.0404">
        <ele>6</ele>
        <time>2018-04-22T13:32:53Z</time>
      </trkpt>
      <trkpt lat="46.91505" lon="-2.04135">
        <ele>7</ele>
        <time>2018-04-22T13:33:53Z</time>
      </trkpt>
      <trkpt lat="46.91507" lon="-2.04173">
        <ele>7</ele>
        <time>2018-04-22T13:34:53Z</time>
      </trkpt>
      <trkpt lat="46.91529" lon="-2.04205">
        <ele>7</ele>
        <time>2018-04-22T13:35:53Z</time>
      </trkpt>
      <trkpt lat="46.91541" lon="-2.04228">
        <ele>7</ele>
        <time>2018-04-22T13:36:53Z</time>
      </trkpt>
      <trkpt lat="46.91551" lon="-2.04257">
        <ele>7</ele>
        <time>2018-04-22T13:37:53Z</time>
      </trkpt>
      <trkpt lat="46.91591" lon="-2.0434">
        <ele>8</ele>
        <time>2018-04-22T13:38:53Z</time>
      </trkpt>
      <trkpt lat="46.91567" lon="-2.0438">
        <ele>7</ele>
        <time>2018-04-22T13:39:53Z</time>
      </trkpt>
      <trkpt lat="46.91567" lon="-2.04386">
        <ele>7</ele>
        <time>2018-04-22T13:40:53Z</time>
      </trkpt>
      <trkpt lat="46.91578" lon="-2.04416">
        <ele>7</ele>
        <time>2018-04-22T13:41:53Z</time>
      </trkpt>
      <trkpt lat="46.91578" lon="-2.04446">
        <ele>7</ele>
        <time>2018-04-22T13:42:53Z</time>
      </trkpt>
      <trkpt lat="46.91576" lon="-2.04496">
        <ele>6</ele>
        <time>2018-04-22T13:43:53Z</time>
      </trkpt>
      <trkpt lat="46.91574" lon="-2.0452">
        <ele>6</ele>
        <time>2018-04-22T13:44:53Z</time>
      </trkpt>
      <trkpt lat="46.91561" lon="-2.04575">
        <ele>4</ele>
        <time>2018-04-22T13:45:53Z</time>
      </trkpt>
      <trkpt lat="46.91561" lon="-2.04575">
        <ele>4</ele>
        <time>2018-04-22T13:46:53Z</time>
      </trkpt>
      <trkpt lat="46.9155" lon="-2.04628">
        <ele>4</ele>
        <time>2018-04-22T13:47:53Z</time>
      </trkpt>
      <trkpt lat="46.91551" lon="-2.04649">
        <ele>4</ele>
        <time>2018-04-22T13:48:53Z</time>
      </trkpt>
      <trkpt lat="46.91553" lon="-2.04656">
        <ele>4</ele>
        <time>2018-04-22T13:49:53Z</time>
      </trkpt>
      <trkpt lat="46.91551" lon="-2.04664">
        <ele>4</ele>
        <time>2018-04-22T13:50:53Z</time>
      </trkpt>
      <trkpt lat="46.91546" lon="-2.04666">
        <ele>4</ele>
        <time>2018-04-22T13:51:53Z</time>
      </trkpt>
      <trkpt lat="46.91541" lon="-2.04662">
        <ele>4</ele>
        <time>2018-04-22T13:52:53Z</time>
      </trkpt>
      <trkpt lat="46.9154" lon="-2.04656">
        <ele>4</ele>
        <time>2018-04-22T13:53:53Z</time>
      </trkpt>
      <trkpt lat="46.91516" lon="-2.04636">
        <ele>4</ele>
        <time>2018-04-22T13:54:53Z</time>
      </trkpt>
      <trkpt lat="46.9143" lon="-2.04554">
        <ele>5</ele>
        <time>2018-04-22T13:55:53Z</time>
      </trkpt>
      <trkpt lat="46.91416" lon="-2.04546">
        <ele>5</ele>
        <time>2018-04-22T13:56:53Z</time>
      </trkpt>
      <trkpt lat="46.91404" lon="-2.04541">
        <ele>6</ele>
        <time>2018-04-22T13:57:53Z</time>
      </trkpt>
      <trkpt lat="46.91368" lon="-2.04536">
        <ele>6</ele>
        <time>2018-04-22T13:58:53Z</time>
      </trkpt>
      <trkpt lat="46.91352" lon="-2.04535">
        <ele>7</ele>
        <time>2018-04-22T13:59:53Z</time>
      </trkpt>
      <trkpt lat="46.91332" lon="-2.04541">
        <ele>7</ele>
        <time>2018-04-22T14:00:53Z</time>
      </trkpt>
      <trkpt lat="46.9129" lon="-2.0456">
        <ele>7</ele>
        <time>2018-04-22T14:01:53Z</time>
      </trkpt>
      <trkpt lat="46.91258" lon="-2.04575">
        <ele>7</ele>
        <time>2018-04-22T14:02:53Z</time>
      </trkpt>
      <trkpt lat="46.91211" lon="-2.04602">
        <ele>7</ele>
        <time>2018-04-22T14:03:53Z</time>
      </trkpt>
      <trkpt lat="46.91107" lon="-2.04673">
        <ele>5</ele>
        <time>2018-04-22T14:04:53Z</time>
      </trkpt>
      <trkpt lat="46.91105" lon="-2.04674">
        <ele>5</ele>
        <time>2018-04-22T14:05:53Z</time>
      </trkpt>
      <trkpt lat="46.91101" lon="-2.04702">
        <ele>4</ele>
        <time>2018-04-22T14:06:53Z</time>
      </trkpt>
      <trkpt lat="46.91097" lon="-2.04708">
        <ele>4</ele>
        <time>2018-04-22T14:07:53Z</time>
      </trkpt>
      <trkpt lat="46.91089" lon="-2.04707">
        <ele>4</ele>
        <time>2018-04-22T14:08:53Z</time>
      </trkpt>
      <trkpt lat="46.91073" lon="-2.04698">
        <ele>4</ele>
        <time>2018-04-22T14:09:53Z</time>
      </trkpt>
      <trkpt lat="46.91066" lon="-2.047">
        <ele>4</ele>
        <time>2018-04-22T14:10:53Z</time>
      </trkpt>
      <trkpt lat="46.90922" lon="-2.04798">
        <ele>3</ele>
        <time>2018-04-22T14:11:53Z</time>
      </trkpt>
      <trkpt lat="46.90809" lon="-2.04864">
        <ele>3</ele>
        <time>2018-04-22T14:12:53Z</time>
      </trkpt>
      <trkpt lat="46.9056" lon="-2.05043">
        <ele>3</ele>
        <time>2018-04-22T14:13:53Z</time>
      </trkpt>
      <trkpt lat="46.90547" lon="-2.05055">
        <ele>2</ele>
        <time>2018-04-22T14:14:53Z</time>
      </trkpt>
      <trkpt lat="46.90516" lon="-2.05089">
        <ele>1</ele>
        <time>2018-04-22T14:15:53Z</time>
      </trkpt>
      <trkpt lat="46.90502" lon="-2.05109">
        <ele>1</ele>
        <time>2018-04-22T14:16:53Z</time>
      </trkpt>
      <trkpt lat="46.9048" lon="-2.05154">
        <ele>2</ele>
        <time>2018-04-22T14:17:53Z</time>
      </trkpt>
      <trkpt lat="46.90471" lon="-2.05178">
        <ele>2</ele>
        <time>2018-04-22T14:18:53Z</time>
      </trkpt>
      <trkpt lat="46.90421" lon="-2.05389">
        <ele>2</ele>
        <time>2018-04-22T14:19:53Z</time>
      </trkpt>
      <trkpt lat="46.90417" lon="-2.05416">
        <ele>2</ele>
        <time>2018-04-22T14:20:53Z</time>
      </trkpt>
      <trkpt lat="46.90415" lon="-2.05445">
        <ele>2.9</ele>
        <time>2018-04-22T14:21:53Z</time>
      </trkpt>
      <trkpt lat="46.90419" lon="-2.05542">
        <ele>2.5</ele>
        <time>2018-04-22T14:22:53Z</time>
      </trkpt>
      <trkpt lat="46.90414" lon="-2.05584">
        <ele>1</ele>
        <time>2018-04-22T14:23:53Z</time>
      </trkpt>
      <trkpt lat="46.90403" lon="-2.0562">
        <ele>1</ele>
        <time>2018-04-22T14:24:53Z</time>
      </trkpt>
      <trkpt lat="46.90367" lon="-2.05699">
        <ele>1</ele>
        <time>2018-04-22T14:25:53Z</time>
      </trkpt>
      <trkpt lat="46.90334" lon="-2.05762">
        <ele>1</ele>
        <time>2018-04-22T14:26:53Z</time>
      </trkpt>
      <trkpt lat="46.90295" lon="-2.0582">
        <ele>1</ele>
        <time>2018-04-22T14:27:53Z</time>
      </trkpt>
      <trkpt lat="46.9019" lon="-2.05938">
        <ele>1</ele>
        <time>2018-04-22T14:28:53Z</time>
      </trkpt>
      <trkpt lat="46.9017" lon="-2.05968">
        <ele>2.7</ele>
        <time>2018-04-22T14:29:53Z</time>
      </trkpt>
      <trkpt lat="46.90041" lon="-2.06205">
        <ele>2.3</ele>
        <time>2018-04-22T14:30:53Z</time>
      </trkpt>
      <trkpt lat="46.90009" lon="-2.06255">
        <ele>2.1</ele>
        <time>2018-04-22T14:31:53Z</time>
      </trkpt>
      <trkpt lat="46.89978" lon="-2.06287">
        <ele>1</ele>
        <time>2018-04-22T14:32:53Z</time>
      </trkpt>
      <trkpt lat="46.89959" lon="-2.06302">
        <ele>1</ele>
        <time>2018-04-22T14:33:53Z</time>
      </trkpt>
      <trkpt lat="46.89936" lon="-2.06314">
        <ele>1</ele>
        <time>2018-04-22T14:34:53Z</time>
      </trkpt>
      <trkpt lat="46.89691" lon="-2.06396">
        <ele>1</ele>
        <time>2018-04-22T14:35:53Z</time>
      </trkpt>
      <trkpt lat="46.89582" lon="-2.06438">
        <ele>1</ele>
        <time>2018-04-22T14:36:53Z</time>
      </trkpt>
      <trkpt lat="46.89553" lon="-2.06451">
        <ele>1</ele>
        <time>2018-04-22T14:37:53Z</time>
      </trkpt>
      <trkpt lat="46.89523" lon="-2.06469">
        <ele>3</ele>
        <time>2018-04-22T14:38:53Z</time>
      </trkpt>
      <trkpt lat="46.89461" lon="-2.06515">
        <ele>3</ele>
        <time>2018-04-22T14:39:53Z</time>
      </trkpt>
      <trkpt lat="46.89435" lon="-2.06529">
        <ele>2.6</ele>
        <time>2018-04-22T14:40:53Z</time>
      </trkpt>
      <trkpt lat="46.89393" lon="-2.06548">
        <ele>2.1</ele>
        <time>2018-04-22T14:41:53Z</time>
      </trkpt>
      <trkpt lat="46.89334" lon="-2.06581">
        <ele>1</ele>
        <time>2018-04-22T14:42:53Z</time>
      </trkpt>
      <trkpt lat="46.89327" lon="-2.06589">
        <ele>1</ele>
        <time>2018-04-22T14:43:53Z</time>
      </trkpt>
      <trkpt lat="46.89322" lon="-2.06598">
        <ele>1</ele>
        <time>2018-04-22T14:44:53Z</time>
      </trkpt>
      <trkpt lat="46.89322" lon="-2.06612">
        <ele>1</ele>
        <time>2018-04-22T14:45:53Z</time>
      </trkpt>
      <trkpt lat="46.89316" lon="-2.06623">
        <ele>1</ele>
        <time>2018-04-22T14:46:53Z</time>
      </trkpt>
      <trkpt lat="46.89307" lon="-2.06625">
        <ele>1</ele>
        <time>2018-04-22T14:47:53Z</time>
      </trkpt>
      <trkpt lat="46.89294" lon="-2.06623">
        <ele>1</ele>
        <time>2018-04-22T14:48:53Z</time>
      </trkpt>
      <trkpt lat="46.89285" lon="-2.06626">
        <ele>1</ele>
        <time>2018-04-22T14:49:53Z</time>
      </trkpt>
      <trkpt lat="46.89216" lon="-2.06711">
        <ele>1</ele>
        <time>2018-04-22T14:50:53Z</time>
      </trkpt>
      <trkpt lat="46.89176" lon="-2.06763">
        <ele>1</ele>
        <time>2018-04-22T14:51:53Z</time>
      </trkpt>
      <trkpt lat="46.89159" lon="-2.0679">
        <ele>1</ele>
        <time>2018-04-22T14:52:53Z</time>
      </trkpt>
      <trkpt lat="46.89145" lon="-2.06821">
        <ele>1</ele>
        <time>2018-04-22T14:53:53Z</time>
      </trkpt>
      <trkpt lat="46.89111" lon="-2.06911">
        <ele>1</ele>
        <time>2018-04-22T14:54:53Z</time>
      </trkpt>
      <trkpt lat="46.89099" lon="-2.06939">
        <ele>2</ele>
        <time>2018-04-22T14:55:53Z</time>
      </trkpt>
      <trkpt lat="46.89083" lon="-2.06966">
        <ele>2</ele>
        <time>2018-04-22T14:56:53Z</time>
      </trkpt>
      <trkpt lat="46.89011" lon="-2.07052">
        <ele>1</ele>
        <time>2018-04-22T14:57:53Z</time>
      </trkpt>
      <trkpt lat="46.88969" lon="-2.07113">
        <ele>2</ele>
        <time>2018-04-22T14:58:53Z</time>
      </trkpt>
      <trkpt lat="46.88815" lon="-2.07375">
        <ele>1</ele>
        <time>2018-04-22T14:59:53Z</time>
      </trkpt>
      <trkpt lat="46.88779" lon="-2.07443">
        <ele>1</ele>
        <time>2018-04-22T15:00:53Z</time>
      </trkpt>
      <trkpt lat="46.88768" lon="-2.07479">
        <ele>2</ele>
        <time>2018-04-22T15:01:53Z</time>
      </trkpt>
      <trkpt lat="46.88763" lon="-2.07505">
        <ele>2.1</ele>
        <time>2018-04-22T15:02:53Z</time>
      </trkpt>
      <trkpt lat="46.88761" lon="-2.07525">
        <ele>2.5</ele>
        <time>2018-04-22T15:03:53Z</time>
      </trkpt>
      <trkpt lat="46.88761" lon="-2.07548">
        <ele>1</ele>
        <time>2018-04-22T15:04:53Z</time>
      </trkpt>
      <trkpt lat="46.88763" lon="-2.07576">
        <ele>1</ele>
        <time>2018-04-22T15:05:53Z</time>
      </trkpt>
      <trkpt lat="46.88914" lon="-2.08875">
        <ele>1</ele>
        <time>2018-04-22T15:06:53Z</time>
      </trkpt>
      <trkpt lat="46.88922" lon="-2.08929">
        <ele>1</ele>
        <time>2018-04-22T15:07:53Z</time>
      </trkpt>
      <trkpt lat="46.8899" lon="-2.09537">
        <ele>1</ele>
        <time>2018-04-22T15:08:53Z</time>
      </trkpt>
      <trkpt lat="46.8899" lon="-2.09597">
        <ele>1</ele>
        <time>2018-04-22T15:09:53Z</time>
      </trkpt>
      <trkpt lat="46.88985" lon="-2.09727">
        <ele>2</ele>
        <time>2018-04-22T15:10:53Z</time>
      </trkpt>
      <trkpt lat="46.88986" lon="-2.09747">
        <ele>2</ele>
        <time>2018-04-22T15:11:53Z</time>
      </trkpt>
      <trkpt lat="46.88994" lon="-2.09772">
        <ele>2</ele>
        <time>2018-04-22T15:12:53Z</time>
      </trkpt>
      <trkpt lat="46.88992" lon="-2.09782">
        <ele>1</ele>
        <time>2018-04-22T15:13:53Z</time>
      </trkpt>
      <trkpt lat="46.88986" lon="-2.09789">
        <ele>1</ele>
        <time>2018-04-22T15:14:53Z</time>
      </trkpt>
      <trkpt lat="46.88983" lon="-2.09789">
        <ele>1</ele>
        <time>2018-04-22T15:15:53Z</time>
      </trkpt>
      <trkpt lat="46.88948" lon="-2.10502">
        <ele>1</ele>
        <time>2018-04-22T15:16:53Z</time>
      </trkpt>
      <trkpt lat="46.88948" lon="-2.10502">
        <ele>1</ele>
        <time>2018-04-22T15:17:53Z</time>
      </trkpt>
      <trkpt lat="46.88925" lon="-2.10949">
        <ele>2</ele>
        <time>2018-04-22T15:18:53Z</time>
      </trkpt>
      <trkpt lat="46.88924" lon="-2.11008">
        <ele>3</ele>
        <time>2018-04-22T15:19:53Z</time>
      </trkpt>
      <trkpt lat="46.88919" lon="-2.1104">
        <ele>4</ele>
        <time>2018-04-22T15:20:53Z</time>
      </trkpt>
      <trkpt lat="46.88892" lon="-2.11134">
        <ele>4</ele>
        <time>2018-04-22T15:21:53Z</time>
      </trkpt>
      <trkpt lat="46.88888" lon="-2.1116">
        <ele>4</ele>
        <time>2018-04-22T15:22:53Z</time>
      </trkpt>
      <trkpt lat="46.88892" lon="-2.11168">
        <ele>4</ele>
        <time>2018-04-22T15:23:53Z</time>
      </trkpt>
      <trkpt lat="46.88891" lon="-2.11178">
        <ele>4</ele>
        <time>2018-04-22T15:24:53Z</time>
      </trkpt>
      <trkpt lat="46.88887" lon="-2.11185">
        <ele>4</ele>
        <time>2018-04-22T15:25:53Z</time>
      </trkpt>
      <trkpt lat="46.88883" lon="-2.11187">
        <ele>4</ele>
        <time>2018-04-22T15:26:53Z</time>
      </trkpt>
      <trkpt lat="46.88877" lon="-2.11186">
        <ele>4</ele>
        <time>2018-04-22T15:27:53Z</time>
      </trkpt>
      <trkpt lat="46.88857" lon="-2.11192">
        <ele>3</ele>
        <time>2018-04-22T15:28:53Z</time>
      </trkpt>
      <trkpt lat="46.88808" lon="-2.11266">
        <ele>1</ele>
        <time>2018-04-22T15:29:53Z</time>
      </trkpt>
      <trkpt lat="46.88674" lon="-2.1148">
        <ele>1</ele>
        <time>2018-04-22T15:30:53Z</time>
      </trkpt>
      <trkpt lat="46.88625" lon="-2.11562">
        <ele>2</ele>
        <time>2018-04-22T15:31:53Z</time>
      </trkpt>
      <trkpt lat="46.88532" lon="-2.11709">
        <ele>2</ele>
        <time>2018-04-22T15:32:53Z</time>
      </trkpt>
      <trkpt lat="46.88489" lon="-2.1179">
        <ele>2</ele>
        <time>2018-04-22T15:33:53Z</time>
      </trkpt>
      <trkpt lat="46.88492" lon="-2.11798">
        <ele>2</ele>
        <time>2018-04-22T15:34:53Z</time>
      </trkpt>
      <trkpt lat="46.8849" lon="-2.11804">
        <ele>2</ele>
        <time>2018-04-22T15:35:53Z</time>
      </trkpt>
      <trkpt lat="46.88486" lon="-2.11807">
        <ele>2</ele>
        <time>2018-04-22T15:36:53Z</time>
      </trkpt>
      <trkpt lat="46.88479" lon="-2.11803">
        <ele>2</ele>
        <time>2018-04-22T15:37:53Z</time>
      </trkpt>
      <trkpt lat="46.88455" lon="-2.11826">
        <ele>2</ele>
        <time>2018-04-22T15:38:53Z</time>
      </trkpt>
      <trkpt lat="46.88383" lon="-2.11911">
        <ele>3</ele>
        <time>2018-04-22T15:39:53Z</time>
      </trkpt>
      <trkpt lat="46.88362" lon="-2.11929">
        <ele>3</ele>
        <time>2018-04-22T15:40:53Z</time>
      </trkpt>
      <trkpt lat="46.8834" lon="-2.1194">
        <ele>3</ele>
        <time>2018-04-22T15:41:53Z</time>
      </trkpt>
      <trkpt lat="46.8833" lon="-2.11942">
        <ele>3</ele>
        <time>2018-04-22T15:42:53Z</time>
      </trkpt>
      <trkpt lat="46.88235" lon="-2.11927">
        <ele>3</ele>
        <time>2018-04-22T15:43:53Z</time>
      </trkpt>
      <trkpt lat="46.88176" lon="-2.11931">
        <ele>3</ele>
        <time>2018-04-22T15:44:53Z</time>
      </trkpt>
      <trkpt lat="46.88133" lon="-2.11924">
        <ele>2</ele>
        <time>2018-04-22T15:45:53Z</time>
      </trkpt>
      <trkpt lat="46.88133" lon="-2.11924">
        <ele>2</ele>
        <time>2018-04-22T15:46:53Z</time>
      </trkpt>
      <trkpt lat="46.88112" lon="-2.11921">
        <ele>2</ele>
        <time>2018-04-22T15:47:53Z</time>
      </trkpt>
      <trkpt lat="46.88072" lon="-2.11921">
        <ele>1</ele>
        <time>2018-04-22T15:48:53Z</time>
      </trkpt>
      <trkpt lat="46.88042" lon="-2.11929">
        <ele>2</ele>
        <time>2018-04-22T15:49:53Z</time>
      </trkpt>
      <trkpt lat="46.87961" lon="-2.11956">
        <ele>2</ele>
        <time>2018-04-22T15:50:53Z</time>
      </trkpt>
      <trkpt lat="46.87961" lon="-2.11956">
        <ele>2</ele>
        <time>2018-04-22T15:51:53Z</time>
      </trkpt>
      <trkpt lat="46.87924" lon="-2.11967">
        <ele>1</ele>
        <time>2018-04-22T15:52:53Z</time>
      </trkpt>
      <trkpt lat="46.87907" lon="-2.11982">
        <ele>1</ele>
        <time>2018-04-22T15:53:53Z</time>
      </trkpt>
      <trkpt lat="46.87898" lon="-2.11998">
        <ele>1</ele>
        <time>2018-04-22T15:54:53Z</time>
      </trkpt>
      <trkpt lat="46.87899" lon="-2.12007">
        <ele>1</ele>
        <time>2018-04-22T15:55:53Z</time>
      </trkpt>
      <trkpt lat="46.87897" lon="-2.12015">
        <ele>2</ele>
        <time>2018-04-22T15:56:53Z</time>
      </trkpt>
      <trkpt lat="46.87894" lon="-2.12023">
        <ele>2</ele>
        <time>2018-04-22T15:57:53Z</time>
      </trkpt>
      <trkpt lat="46.87886" lon="-2.1203">
        <ele>2</ele>
        <time>2018-04-22T15:58:53Z</time>
      </trkpt>
      <trkpt lat="46.8788" lon="-2.12032">
        <ele>2</ele>
        <time>2018-04-22T15:59:53Z</time>
      </trkpt>
      <trkpt lat="46.87874" lon="-2.1203">
        <ele>2</ele>
        <time>2018-04-22T16:00:53Z</time>
      </trkpt>
      <trkpt lat="46.87869" lon="-2.12026">
        <ele>2</ele>
        <time>2018-04-22T16:01:53Z</time>
      </trkpt>
      <trkpt lat="46.87864" lon="-2.12019">
        <ele>2</ele>
        <time>2018-04-22T16:02:53Z</time>
      </trkpt>
      <trkpt lat="46.87862" lon="-2.12011">
        <ele>2</ele>
        <time>2018-04-22T16:03:53Z</time>
      </trkpt>
      <trkpt lat="46.87854" lon="-2.12006">
        <ele>2</ele>
        <time>2018-04-22T16:04:53Z</time>
      </trkpt>
      <trkpt lat="46.87845" lon="-2.12002">
        <ele>2</ele>
        <time>2018-04-22T16:05:53Z</time>
      </trkpt>
      <trkpt lat="46.87832" lon="-2.12003">
        <ele>2</ele>
        <time>2018-04-22T16:06:53Z</time>
      </trkpt>
      <trkpt lat="46.87817" lon="-2.12001">
        <ele>2</ele>
        <time>2018-04-22T16:07:53Z</time>
      </trkpt>
      <trkpt lat="46.87692" lon="-2.12048">
        <ele>1</ele>
        <time>2018-04-22T16:08:53Z</time>
      </trkpt>
      <trkpt lat="46.87656" lon="-2.12058">
        <ele>1</ele>
        <time>2018-04-22T16:09:53Z</time>
      </trkpt>
      <trkpt lat="46.87634" lon="-2.12062">
        <ele>1</ele>
        <time>2018-04-22T16:10:53Z</time>
      </trkpt>
      <trkpt lat="46.87611" lon="-2.12062">
        <ele>1</ele>
        <time>2018-04-22T16:11:53Z</time>
      </trkpt>
      <trkpt lat="46.87536" lon="-2.12054">
        <ele>1</ele>
        <time>2018-04-22T16:12:53Z</time>
      </trkpt>
      <trkpt lat="46.87499" lon="-2.12042">
        <ele>1</ele>
        <time>2018-04-22T16:13:53Z</time>
      </trkpt>
      <trkpt lat="46.87222" lon="-2.11924">
        <ele>2</ele>
        <time>2018-04-22T16:14:53Z</time>
      </trkpt>
      <trkpt lat="46.86705" lon="-2.117">
        <ele>2</ele>
        <time>2018-04-22T16:15:53Z</time>
      </trkpt>
      <trkpt lat="46.86356" lon="-2.11552">
        <ele>2</ele>
        <time>2018-04-22T16:16:53Z</time>
      </trkpt>
      <trkpt lat="46.86253" lon="-2.11505">
        <ele>2</ele>
        <time>2018-04-22T16:17:53Z</time>
      </trkpt>
      <trkpt lat="46.86205" lon="-2.11492">
        <ele>2</ele>
        <time>2018-04-22T16:18:53Z</time>
      </trkpt>
      <trkpt lat="46.86205" lon="-2.11492">
        <ele>2</ele>
        <time>2018-04-22T16:19:53Z</time>
      </trkpt>
      <trkpt lat="46.86171" lon="-2.11485">
        <ele>2</ele>
        <time>2018-04-22T16:20:53Z</time>
      </trkpt>
      <trkpt lat="46.86124" lon="-2.11483">
        <ele>2</ele>
        <time>2018-04-22T16:21:53Z</time>
      </trkpt>
      <trkpt lat="46.86089" lon="-2.11487">
        <ele>2</ele>
        <time>2018-04-22T16:22:53Z</time>
      </trkpt>
      <trkpt lat="46.8605" lon="-2.11496">
        <ele>1.9</ele>
        <time>2018-04-22T16:23:53Z</time>
      </trkpt>
      <trkpt lat="46.85995" lon="-2.11515">
        <ele>1</ele>
        <time>2018-04-22T16:24:53Z</time>
      </trkpt>
      <trkpt lat="46.85717" lon="-2.11647">
        <ele>1</ele>
        <time>2018-04-22T16:25:53Z</time>
      </trkpt>
      <trkpt lat="46.85631" lon="-2.11692">
        <ele>1</ele>
        <time>2018-04-22T16:26:53Z</time>
      </trkpt>
      <trkpt lat="46.85561" lon="-2.11732">
        <ele>1</ele>
        <time>2018-04-22T16:27:53Z</time>
      </trkpt>
      <trkpt lat="46.85443" lon="-2.11806">
        <ele>2</ele>
        <time>2018-04-22T16:28:53Z</time>
      </trkpt>
      <trkpt lat="46.85105" lon="-2.1207">
        <ele>2</ele>
        <time>2018-04-22T16:29:53Z</time>
      </trkpt>
      <trkpt lat="46.85031" lon="-2.12126">
        <ele>2</ele>
        <time>2018-04-22T16:30:53Z</time>
      </trkpt>
      <trkpt lat="46.84999" lon="-2.12147">
        <ele>2</ele>
        <time>2018-04-22T16:31:53Z</time>
      </trkpt>
      <trkpt lat="46.84849" lon="-2.12266">
        <ele>3</ele>
        <time>2018-04-22T16:32:53Z</time>
      </trkpt>
      <trkpt lat="46.84755" lon="-2.12338">
        <ele>3</ele>
        <time>2018-04-22T16:33:53Z</time>
      </trkpt>
      <trkpt lat="46.84684" lon="-2.12389">
        <ele>3</ele>
        <time>2018-04-22T16:34:53Z</time>
      </trkpt>
      <trkpt lat="46.8466" lon="-2.12401">
        <ele>3</ele>
        <time>2018-04-22T16:35:53Z</time>
      </trkpt>
      <trkpt lat="46.84579" lon="-2.12422">
        <ele>5</ele>
        <time>2018-04-22T16:36:53Z</time>
      </trkpt>
      <trkpt lat="46.84027" lon="-2.12506">
        <ele>1</ele>
        <time>2018-04-22T16:37:53Z</time>
      </trkpt>
      <trkpt lat="46.83988" lon="-2.12515">
        <ele>2</ele>
        <time>2018-04-22T16:38:53Z</time>
      </trkpt>
      <trkpt lat="46.83955" lon="-2.12526">
        <ele>1</ele>
        <time>2018-04-22T16:39:53Z</time>
      </trkpt>
      <trkpt lat="46.83762" lon="-2.12643">
        <ele>2</ele>
        <time>2018-04-22T16:40:53Z</time>
      </trkpt>
      <trkpt lat="46.83743" lon="-2.12657">
        <ele>2</ele>
        <time>2018-04-22T16:41:53Z</time>
      </trkpt>
      <trkpt lat="46.83717" lon="-2.12671">
        <ele>2</ele>
        <time>2018-04-22T16:42:53Z</time>
      </trkpt>
      <trkpt lat="46.83606" lon="-2.12739">
        <ele>3</ele>
        <time>2018-04-22T16:43:53Z</time>
      </trkpt>
      <trkpt lat="46.83457" lon="-2.12833">
        <ele>3</ele>
        <time>2018-04-22T16:44:53Z</time>
      </trkpt>
      <trkpt lat="46.83281" lon="-2.12941">
        <ele>3</ele>
        <time>2018-04-22T16:45:53Z</time>
      </trkpt>
      <trkpt lat="46.83236" lon="-2.12966">
        <ele>3</ele>
        <time>2018-04-22T16:46:53Z</time>
      </trkpt>
      <trkpt lat="46.83227" lon="-2.12968">
        <ele>3</ele>
        <time>2018-04-22T16:47:53Z</time>
      </trkpt>
      <trkpt lat="46.83226" lon="-2.12976">
        <ele>3</ele>
        <time>2018-04-22T16:48:53Z</time>
      </trkpt>
      <trkpt lat="46.83221" lon="-2.12981">
        <ele>3</ele>
        <time>2018-04-22T16:49:53Z</time>
      </trkpt>
      <trkpt lat="46.83215" lon="-2.12981">
        <ele>3</ele>
        <time>2018-04-22T16:50:53Z</time>
      </trkpt>
      <trkpt lat="46.8321" lon="-2.12974">
        <ele>3</ele>
        <time>2018-04-22T16:51:53Z</time>
      </trkpt>
      <trkpt lat="46.83203" lon="-2.1298">
        <ele>3</ele>
        <time>2018-04-22T16:52:53Z</time>
      </trkpt>
      <trkpt lat="46.83176" lon="-2.12989">
        <ele>3</ele>
        <time>2018-04-22T16:53:53Z</time>
      </trkpt>
      <trkpt lat="46.83146" lon="-2.13005">
        <ele>3</ele>
        <time>2018-04-22T16:54:53Z</time>
      </trkpt>
      <trkpt lat="46.83082" lon="-2.13044">
        <ele>5</ele>
        <time>2018-04-22T16:55:53Z</time>
      </trkpt>
      <trkpt lat="46.83074" lon="-2.1305">
        <ele>4</ele>
        <time>2018-04-22T16:56:53Z</time>
      </trkpt>
      <trkpt lat="46.83074" lon="-2.13056">
        <ele>5</ele>
        <time>2018-04-22T16:57:53Z</time>
      </trkpt>
      <trkpt lat="46.83071" lon="-2.13068">
        <ele>5</ele>
        <time>2018-04-22T16:58:53Z</time>
      </trkpt>
      <trkpt lat="46.83067" lon="-2.13073">
        <ele>5</ele>
        <time>2018-04-22T16:59:53Z</time>
      </trkpt>
      <trkpt lat="46.83059" lon="-2.13072">
        <ele>5</ele>
        <time>2018-04-22T17:00:53Z</time>
      </trkpt>
      <trkpt lat="46.83055" lon="-2.13069">
        <ele>4</ele>
        <time>2018-04-22T17:01:53Z</time>
      </trkpt>
      <trkpt lat="46.83048" lon="-2.1309">
        <ele>5</ele>
        <time>2018-04-22T17:02:53Z</time>
      </trkpt>
      <trkpt lat="46.83013" lon="-2.13165">
        <ele>6</ele>
        <time>2018-04-22T17:03:53Z</time>
      </trkpt>
      <trkpt lat="46.83013" lon="-2.1317">
        <ele>6</ele>
        <time>2018-04-22T17:04:53Z</time>
      </trkpt>
      <trkpt lat="46.83012" lon="-2.13178">
        <ele>6</ele>
        <time>2018-04-22T17:05:53Z</time>
      </trkpt>
      <trkpt lat="46.83007" lon="-2.13184">
        <ele>6</ele>
        <time>2018-04-22T17:06:53Z</time>
      </trkpt>
      <trkpt lat="46.83" lon="-2.13183">
        <ele>6</ele>
        <time>2018-04-22T17:07:53Z</time>
      </trkpt>
      <trkpt lat="46.82997" lon="-2.13179">
        <ele>6</ele>
        <time>2018-04-22T17:08:53Z</time>
      </trkpt>
      <trkpt lat="46.82973" lon="-2.13188">
        <ele>6</ele>
        <time>2018-04-22T17:09:53Z</time>
      </trkpt>
      <trkpt lat="46.82898" lon="-2.13189">
        <ele>5</ele>
        <time>2018-04-22T17:10:53Z</time>
      </trkpt>
      <trkpt lat="46.8259" lon="-2.13186">
        <ele>5</ele>
        <time>2018-04-22T17:11:53Z</time>
      </trkpt>
      <trkpt lat="46.8259" lon="-2.13186">
        <ele>5</ele>
        <time>2018-04-22T17:12:53Z</time>
      </trkpt>
      <trkpt lat="46.82505" lon="-2.13186">
        <ele>4</ele>
        <time>2018-04-22T17:13:53Z</time>
      </trkpt>
      <trkpt lat="46.82495" lon="-2.13184">
        <ele>4</ele>
        <time>2018-04-22T17:14:53Z</time>
      </trkpt>
      <trkpt lat="46.82486" lon="-2.13179">
        <ele>4</ele>
        <time>2018-04-22T17:15:53Z</time>
      </trkpt>
      <trkpt lat="46.82483" lon="-2.13184">
        <ele>4</ele>
        <time>2018-04-22T17:16:53Z</time>
      </trkpt>
      <trkpt lat="46.82478" lon="-2.13185">
        <ele>4</ele>
        <time>2018-04-22T17:17:53Z</time>
      </trkpt>
      <trkpt lat="46.82474" lon="-2.13183">
        <ele>4</ele>
        <time>2018-04-22T17:18:53Z</time>
      </trkpt>
      <trkpt lat="46.82471" lon="-2.13177">
        <ele>4</ele>
        <time>2018-04-22T17:19:53Z</time>
      </trkpt>
      <trkpt lat="46.82471" lon="-2.1317">
        <ele>4</ele>
        <time>2018-04-22T17:20:53Z</time>
      </trkpt>
      <trkpt lat="46.82474" lon="-2.13164">
        <ele>4</ele>
        <time>2018-04-22T17:21:53Z</time>
      </trkpt>
      <trkpt lat="46.82478" lon="-2.13161">
        <ele>4</ele>
        <time>2018-04-22T17:22:53Z</time>
      </trkpt>
      <trkpt lat="46.82472" lon="-2.13092">
        <ele>4</ele>
        <time>2018-04-22T17:23:53Z</time>
      </trkpt>
      <trkpt lat="46.8247" lon="-2.13038">
        <ele>4</ele>
        <time>2018-04-22T17:24:53Z</time>
      </trkpt>
      <trkpt lat="46.82472" lon="-2.13013">
        <ele>3</ele>
        <time>2018-04-22T17:25:53Z</time>
      </trkpt>
      <trkpt lat="46.8248" lon="-2.12958">
        <ele>3</ele>
        <time>2018-04-22T17:26:53Z</time>
      </trkpt>
      <trkpt lat="46.82488" lon="-2.12888">
        <ele>2</ele>
        <time>2018-04-22T17:27:53Z</time>
      </trkpt>
      <trkpt lat="46.82488" lon="-2.12824">
        <ele>2</ele>
        <time>2018-04-22T17:28:53Z</time>
      </trkpt>
      <trkpt lat="46.82486" lon="-2.1277">
        <ele>3</ele>
        <time>2018-04-22T17:29:53Z</time>
      </trkpt>
      <trkpt lat="46.82484" lon="-2.12743">
        <ele>3</ele>
        <time>2018-04-22T17:30:53Z</time>
      </trkpt>
      <trkpt lat="46.82458" lon="-2.12628">
        <ele>1</ele>
        <time>2018-04-22T17:31:53Z</time>
      </trkpt>
      <trkpt lat="46.82445" lon="-2.12564">
        <ele>1</ele>
        <time>2018-04-22T17:32:53Z</time>
      </trkpt>
      <trkpt lat="46.82414" lon="-2.12322">
        <ele>1.9</ele>
        <time>2018-04-22T17:33:53Z</time>
      </trkpt>
      <trkpt lat="46.82386" lon="-2.12198">
        <ele>2</ele>
        <time>2018-04-22T17:34:53Z</time>
      </trkpt>
      <trkpt lat="46.82375" lon="-2.12157">
        <ele>1.5</ele>
        <time>2018-04-22T17:35:53Z</time>
      </trkpt>
      <trkpt lat="46.82364" lon="-2.12141">
        <ele>1.9</ele>
        <time>2018-04-22T17:36:53Z</time>
      </trkpt>
      <trkpt lat="46.82342" lon="-2.12122">
        <ele>1.5</ele>
        <time>2018-04-22T17:37:53Z</time>
      </trkpt>
      <trkpt lat="46.82327" lon="-2.12104">
        <ele>2</ele>
        <time>2018-04-22T17:38:53Z</time>
      </trkpt>
      <trkpt lat="46.82318" lon="-2.12084">
        <ele>2</ele>
        <time>2018-04-22T17:39:53Z</time>
      </trkpt>
      <trkpt lat="46.82297" lon="-2.12015">
        <ele>1.5</ele>
        <time>2018-04-22T17:40:53Z</time>
      </trkpt>
      <trkpt lat="46.82289" lon="-2.11998">
        <ele>2</ele>
        <time>2018-04-22T17:41:53Z</time>
      </trkpt>
      <trkpt lat="46.82267" lon="-2.11971">
        <ele>2</ele>
        <time>2018-04-22T17:42:53Z</time>
      </trkpt>
      <trkpt lat="46.8226" lon="-2.11956">
        <ele>2</ele>
        <time>2018-04-22T17:43:53Z</time>
      </trkpt>
      <trkpt lat="46.82244" lon="-2.11899">
        <ele>1</ele>
        <time>2018-04-22T17:44:53Z</time>
      </trkpt>
      <trkpt lat="46.82237" lon="-2.11882">
        <ele>1</ele>
        <time>2018-04-22T17:45:53Z</time>
      </trkpt>
      <trkpt lat="46.82227" lon="-2.1187">
        <ele>1</ele>
        <time>2018-04-22T17:46:53Z</time>
      </trkpt>
      <trkpt lat="46.82204" lon="-2.11858">
        <ele>1</ele>
        <time>2018-04-22T17:47:53Z</time>
      </trkpt>
      <trkpt lat="46.82193" lon="-2.11847">
        <ele>1</ele>
        <time>2018-04-22T17:48:53Z</time>
      </trkpt>
      <trkpt lat="46.8216" lon="-2.11802">
        <ele>2</ele>
        <time>2018-04-22T17:49:53Z</time>
      </trkpt>
      <trkpt lat="46.82145" lon="-2.11776">
        <ele>2</ele>
        <time>2018-04-22T17:50:53Z</time>
      </trkpt>
      <trkpt lat="46.82135" lon="-2.11765">
        <ele>1.5</ele>
        <time>2018-04-22T17:51:53Z</time>
      </trkpt>
      <trkpt lat="46.82097" lon="-2.1173">
        <ele>1.3</ele>
        <time>2018-04-22T17:52:53Z</time>
      </trkpt>
      <trkpt lat="46.82014" lon="-2.11572">
        <ele>1</ele>
        <time>2018-04-22T17:53:53Z</time>
      </trkpt>
      <trkpt lat="46.81994" lon="-2.1154">
        <ele>2</ele>
        <time>2018-04-22T17:54:53Z</time>
      </trkpt>
      <trkpt lat="46.81969" lon="-2.11517">
        <ele>2</ele>
        <time>2018-04-22T17:55:53Z</time>
      </trkpt>
      <trkpt lat="46.81843" lon="-2.1149">
        <ele>1</ele>
        <time>2018-04-22T17:56:53Z</time>
      </trkpt>
      <trkpt lat="46.81829" lon="-2.11484">
        <ele>1</ele>
        <time>2018-04-22T17:57:53Z</time>
      </trkpt>
      <trkpt lat="46.81818" lon="-2.11472">
        <ele>1</ele>
        <time>2018-04-22T17:58:53Z</time>
      </trkpt>
      <trkpt lat="46.8181" lon="-2.11457">
        <ele>1</ele>
        <time>2018-04-22T17:59:53Z</time>
      </trkpt>
      <trkpt lat="46.81805" lon="-2.11436">
        <ele>1</ele>
        <time>2018-04-22T18:00:53Z</time>
      </trkpt>
      <trkpt lat="46.81796" lon="-2.11332">
        <ele>1</ele>
        <time>2018-04-22T18:01:53Z</time>
      </trkpt>
      <trkpt lat="46.81793" lon="-2.11268">
        <ele>1</ele>
        <time>2018-04-22T18:02:53Z</time>
      </trkpt>
      <trkpt lat="46.81787" lon="-2.11254">
        <ele>1</ele>
        <time>2018-04-22T18:03:53Z</time>
      </trkpt>
      <trkpt lat="46.81772" lon="-2.11234">
        <ele>1</ele>
        <time>2018-04-22T18:04:53Z</time>
      </trkpt>
      <trkpt lat="46.81752" lon="-2.11218">
        <ele>1</ele>
        <time>2018-04-22T18:05:53Z</time>
      </trkpt>
      <trkpt lat="46.81735" lon="-2.11208">
        <ele>1</ele>
        <time>2018-04-22T18:06:53Z</time>
      </trkpt>
      <trkpt lat="46.81737" lon="-2.11195">
        <ele>1</ele>
        <time>2018-04-22T18:07:53Z</time>
      </trkpt>
      <trkpt lat="46.81732" lon="-2.11156">
        <ele>1</ele>
        <time>2018-04-22T18:08:53Z</time>
      </trkpt>
      <trkpt lat="46.81722" lon="-2.11137">
        <ele>1</ele>
        <time>2018-04-22T18:09:53Z</time>
      </trkpt>
      <trkpt lat="46.81689" lon="-2.111">
        <ele>1.9</ele>
        <time>2018-04-22T18:10:53Z</time>
      </trkpt>
      <trkpt lat="46.81617" lon="-2.10977">
        <ele>1</ele>
        <time>2018-04-22T18:11:53Z</time>
      </trkpt>
      <trkpt lat="46.8158" lon="-2.10895">
        <ele>1.9</ele>
        <time>2018-04-22T18:12:53Z</time>
      </trkpt>
      <trkpt lat="46.81564" lon="-2.10875">
        <ele>1.5</ele>
        <time>2018-04-22T18:13:53Z</time>
      </trkpt>
      <trkpt lat="46.81507" lon="-2.10844">
        <ele>2</ele>
        <time>2018-04-22T18:14:53Z</time>
      </trkpt>
      <trkpt lat="46.81496" lon="-2.10835">
        <ele>2</ele>
        <time>2018-04-22T18:15:53Z</time>
      </trkpt>
      <trkpt lat="46.81483" lon="-2.10821">
        <ele>2</ele>
        <time>2018-04-22T18:16:53Z</time>
      </trkpt>
      <trkpt lat="46.81462" lon="-2.10788">
        <ele>1.5</ele>
        <time>2018-04-22T18:17:53Z</time>
      </trkpt>
      <trkpt lat="46.81446" lon="-2.10769">
        <ele>1</ele>
        <time>2018-04-22T18:18:53Z</time>
      </trkpt>
      <trkpt lat="46.81435" lon="-2.10758">
        <ele>1</ele>
        <time>2018-04-22T18:19:53Z</time>
      </trkpt>
      <trkpt lat="46.81376" lon="-2.10713">
        <ele>1</ele>
        <time>2018-04-22T18:20:53Z</time>
      </trkpt>
      <trkpt lat="46.81376" lon="-2.10713">
        <ele>1</ele>
        <time>2018-04-22T18:21:53Z</time>
      </trkpt>
      <trkpt lat="46.81241" lon="-2.10609">
        <ele>1</ele>
        <time>2018-04-22T18:22:53Z</time>
      </trkpt>
      <trkpt lat="46.81196" lon="-2.10563">
        <ele>2</ele>
        <time>2018-04-22T18:23:53Z</time>
      </trkpt>
      <trkpt lat="46.81164" lon="-2.10521">
        <ele>1</ele>
        <time>2018-04-22T18:24:53Z</time>
      </trkpt>
      <trkpt lat="46.81105" lon="-2.10406">
        <ele>2</ele>
        <time>2018-04-22T18:25:53Z</time>
      </trkpt>
      <trkpt lat="46.81092" lon="-2.10378">
        <ele>2</ele>
        <time>2018-04-22T18:26:53Z</time>
      </trkpt>
      <trkpt lat="46.81075" lon="-2.1033">
        <ele>2</ele>
        <time>2018-04-22T18:27:53Z</time>
      </trkpt>
      <trkpt lat="46.81053" lon="-2.10254">
        <ele>1</ele>
        <time>2018-04-22T18:28:53Z</time>
      </trkpt>
      <trkpt lat="46.81048" lon="-2.10242">
        <ele>1</ele>
        <time>2018-04-22T18:29:53Z</time>
      </trkpt>
      <trkpt lat="46.81037" lon="-2.10225">
        <ele>1</ele>
        <time>2018-04-22T18:30:53Z</time>
      </trkpt>
      <trkpt lat="46.81024" lon="-2.1021">
        <ele>1</ele>
        <time>2018-04-22T18:31:53Z</time>
      </trkpt>
      <trkpt lat="46.81011" lon="-2.10199">
        <ele>1</ele>
        <time>2018-04-22T18:32:53Z</time>
      </trkpt>
      <trkpt lat="46.80997" lon="-2.10184">
        <ele>1</ele>
        <time>2018-04-22T18:33:53Z</time>
      </trkpt>
      <trkpt lat="46.80984" lon="-2.10163">
        <ele>1</ele>
        <time>2018-04-22T18:34:53Z</time>
      </trkpt>
      <trkpt lat="46.80888" lon="-2.09977">
        <ele>1</ele>
        <time>2018-04-22T18:35:53Z</time>
      </trkpt>
      <trkpt lat="46.80867" lon="-2.0992">
        <ele>2</ele>
        <time>2018-04-22T18:36:53Z</time>
      </trkpt>
      <trkpt lat="46.80777" lon="-2.09742">
        <ele>2</ele>
        <time>2018-04-22T18:37:53Z</time>
      </trkpt>
      <trkpt lat="46.80696" lon="-2.09574">
        <ele>1</ele>
        <time>2018-04-22T18:38:53Z</time>
      </trkpt>
      <trkpt lat="46.80685" lon="-2.09556">
        <ele>1</ele>
        <time>2018-04-22T18:39:53Z</time>
      </trkpt>
      <trkpt lat="46.80634" lon="-2.09504">
        <ele>2</ele>
        <time>2018-04-22T18:40:53Z</time>
      </trkpt>
      <trkpt lat="46.80602" lon="-2.09451">
        <ele>2</ele>
        <time>2018-04-22T18:41:53Z</time>
      </trkpt>
      <trkpt lat="46.80578" lon="-2.09421">
        <ele>2</ele>
        <time>2018-04-22T18:42:53Z</time>
      </trkpt>
      <trkpt lat="46.80513" lon="-2.0929">
        <ele>1</ele>
        <time>2018-04-22T18:43:53Z</time>
      </trkpt>
      <trkpt lat="46.80454" lon="-2.09157">
        <ele>2</ele>
        <time>2018-04-22T18:44:53Z</time>
      </trkpt>
      <trkpt lat="46.80392" lon="-2.08979">
        <ele>2</ele>
        <time>2018-04-22T18:45:53Z</time>
      </trkpt>
      <trkpt lat="46.80388" lon="-2.08924">
        <ele>3</ele>
        <time>2018-04-22T18:46:53Z</time>
      </trkpt>
      <trkpt lat="46.8038" lon="-2.08886">
        <ele>3</ele>
        <time>2018-04-22T18:47:53Z</time>
      </trkpt>
      <trkpt lat="46.80365" lon="-2.08854">
        <ele>3</ele>
        <time>2018-04-22T18:48:53Z</time>
      </trkpt>
      <trkpt lat="46.80361" lon="-2.08833">
        <ele>2</ele>
        <time>2018-04-22T18:49:53Z</time>
      </trkpt>
      <trkpt lat="46.8036" lon="-2.08815">
        <ele>2</ele>
        <time>2018-04-22T18:50:53Z</time>
      </trkpt>
      <trkpt lat="46.80363" lon="-2.08795">
        <ele>2</ele>
        <time>2018-04-22T18:51:53Z</time>
      </trkpt>
      <trkpt lat="46.80374" lon="-2.08734">
        <ele>2</ele>
        <time>2018-04-22T18:52:53Z</time>
      </trkpt>
      <trkpt lat="46.80337" lon="-2.08537">
        <ele>2</ele>
        <time>2018-04-22T18:53:53Z</time>
      </trkpt>
      <trkpt lat="46.80341" lon="-2.08477">
        <ele>2</ele>
        <time>2018-04-22T18:54:53Z</time>
      </trkpt>
      <trkpt lat="46.80334" lon="-2.08428">
        <ele>2</ele>
        <time>2018-04-22T18:55:53Z</time>
      </trkpt>
      <trkpt lat="46.80309" lon="-2.08317">
        <ele>2</ele>
        <time>2018-04-22T18:56:53Z</time>
      </trkpt>
      <trkpt lat="46.80307" lon="-2.08259">
        <ele>2</ele>
        <time>2018-04-22T18:57:53Z</time>
      </trkpt>
      <trkpt lat="46.80298" lon="-2.08224">
        <ele>2</ele>
        <time>2018-04-22T18:58:53Z</time>
      </trkpt>
      <trkpt lat="46.80288" lon="-2.08197">
        <ele>1</ele>
        <time>2018-04-22T18:59:53Z</time>
      </trkpt>
      <trkpt lat="46.80264" lon="-2.08155">
        <ele>1</ele>
        <time>2018-04-22T19:00:53Z</time>
      </trkpt>
      <trkpt lat="46.80247" lon="-2.08131">
        <ele>1</ele>
        <time>2018-04-22T19:01:53Z</time>
      </trkpt>
      <trkpt lat="46.80242" lon="-2.08107">
        <ele>2</ele>
        <time>2018-04-22T19:02:53Z</time>
      </trkpt>
      <trkpt lat="46.80246" lon="-2.08084">
        <ele>2</ele>
        <time>2018-04-22T19:03:53Z</time>
      </trkpt>
      <trkpt lat="46.80246" lon="-2.08033">
        <ele>2</ele>
        <time>2018-04-22T19:04:53Z</time>
      </trkpt>
      <trkpt lat="46.80234" lon="-2.07997">
        <ele>1</ele>
        <time>2018-04-22T19:05:53Z</time>
      </trkpt>
      <trkpt lat="46.80189" lon="-2.07912">
        <ele>1</ele>
        <time>2018-04-22T19:06:53Z</time>
      </trkpt>
      <trkpt lat="46.80161" lon="-2.07839">
        <ele>1.8</ele>
        <time>2018-04-22T19:07:53Z</time>
      </trkpt>
      <trkpt lat="46.80144" lon="-2.07779">
        <ele>1</ele>
        <time>2018-04-22T19:08:53Z</time>
      </trkpt>
      <trkpt lat="46.80136" lon="-2.07731">
        <ele>1</ele>
        <time>2018-04-22T19:09:53Z</time>
      </trkpt>
      <trkpt lat="46.80132" lon="-2.07679">
        <ele>1</ele>
        <time>2018-04-22T19:10:53Z</time>
      </trkpt>
      <trkpt lat="46.80107" lon="-2.07507">
        <ele>2</ele>
        <time>2018-04-22T19:11:53Z</time>
      </trkpt>
      <trkpt lat="46.8011" lon="-2.07462">
        <ele>2</ele>
        <time>2018-04-22T19:12:53Z</time>
      </trkpt>
      <trkpt lat="46.80107" lon="-2.07426">
        <ele>3</ele>
        <time>2018-04-22T19:13:53Z</time>
      </trkpt>
      <trkpt lat="46.80096" lon="-2.07356">
        <ele>2</ele>
        <time>2018-04-22T19:14:53Z</time>
      </trkpt>
      <trkpt lat="46.80092" lon="-2.073">
        <ele>1</ele>
        <time>2018-04-22T19:15:53Z</time>
      </trkpt>
      <trkpt lat="46.80078" lon="-2.07202">
        <ele>1</ele>
        <time>2018-04-22T19:16:53Z</time>
      </trkpt>
      <trkpt lat="46.80067" lon="-2.0704">
        <ele>1</ele>
        <time>2018-04-22T19:17:53Z</time>
      </trkpt>
      <trkpt lat="46.8003" lon="-2.06918">
        <ele>1</ele>
        <time>2018-04-22T19:18:53Z</time>
      </trkpt>
      <trkpt lat="46.80012" lon="-2.0687">
        <ele>1.6</ele>
        <time>2018-04-22T19:19:53Z</time>
      </trkpt>
      <trkpt lat="46.79995" lon="-2.06814">
        <ele>2.6</ele>
        <time>2018-04-22T19:20:53Z</time>
      </trkpt>
      <trkpt lat="46.8" lon="-2.06788">
        <ele>1</ele>
        <time>2018-04-22T19:21:53Z</time>
      </trkpt>
      <trkpt lat="46.79996" lon="-2.06788">
        <ele>1</ele>
        <time>2018-04-22T19:22:53Z</time>
      </trkpt>
      <trkpt lat="46.79991" lon="-2.06783">
        <ele>1</ele>
        <time>2018-04-22T19:23:53Z</time>
      </trkpt>
      <trkpt lat="46.79981" lon="-2.0678">
        <ele>2.3</ele>
        <time>2018-04-22T19:24:53Z</time>
      </trkpt>
      <trkpt lat="46.7997" lon="-2.06786">
        <ele>2</ele>
        <time>2018-04-22T19:25:53Z</time>
      </trkpt>
      <trkpt lat="46.7997" lon="-2.06786">
        <ele>2</ele>
        <time>2018-04-22T19:26:53Z</time>
      </trkpt>
      <trkpt lat="46.79938" lon="-2.06802">
        <ele>2</ele>
        <time>2018-04-22T19:27:53Z</time>
      </trkpt>
      <trkpt lat="46.79856" lon="-2.0685">
        <ele>2</ele>
        <time>2018-04-22T19:28:53Z</time>
      </trkpt>
      <trkpt lat="46.79787" lon="-2.06894">
        <ele>2</ele>
        <time>2018-04-22T19:29:53Z</time>
      </trkpt>
      <trkpt lat="46.797" lon="-2.06942">
        <ele>3</ele>
        <time>2018-04-22T19:30:53Z</time>
      </trkpt>
      <trkpt lat="46.79694" lon="-2.06948">
        <ele>4</ele>
        <time>2018-04-22T19:31:53Z</time>
      </trkpt>
      <trkpt lat="46.79676" lon="-2.0696">
        <ele>4</ele>
        <time>2018-04-22T19:32:53Z</time>
      </trkpt>
      <trkpt lat="46.79672" lon="-2.06966">
        <ele>4</ele>
        <time>2018-04-22T19:33:53Z</time>
      </trkpt>
      <trkpt lat="46.79668" lon="-2.06979">
        <ele>4</ele>
        <time>2018-04-22T19:34:53Z</time>
      </trkpt>
      <trkpt lat="46.79663" lon="-2.06983">
        <ele>4</ele>
        <time>2018-04-22T19:35:53Z</time>
      </trkpt>
      <trkpt lat="46.79659" lon="-2.06984">
        <ele>4</ele>
        <time>2018-04-22T19:36:53Z</time>
      </trkpt>
      <trkpt lat="46.79654" lon="-2.06982">
        <ele>4</ele>
        <time>2018-04-22T19:37:53Z</time>
      </trkpt>
      <trkpt lat="46.79649" lon="-2.06973">
        <ele>4</ele>
        <time>2018-04-22T19:38:53Z</time>
      </trkpt>
      <trkpt lat="46.79648" lon="-2.06968">
        <ele>4</ele>
        <time>2018-04-22T19:39:53Z</time>
      </trkpt>
      <trkpt lat="46.79631" lon="-2.06957">
        <ele>5</ele>
        <time>2018-04-22T19:40:53Z</time>
      </trkpt>
      <trkpt lat="46.79624" lon="-2.06946">
        <ele>5</ele>
        <time>2018-04-22T19:41:53Z</time>
      </trkpt>
      <trkpt lat="46.79621" lon="-2.06937">
        <ele>5</ele>
        <time>2018-04-22T19:42:53Z</time>
      </trkpt>
      <trkpt lat="46.79523" lon="-2.06794">
        <ele>5</ele>
        <time>2018-04-22T19:43:53Z</time>
      </trkpt>
      <trkpt lat="46.79512" lon="-2.0678">
        <ele>5</ele>
        <time>2018-04-22T19:44:53Z</time>
      </trkpt>
      <trkpt lat="46.79505" lon="-2.06779">
        <ele>5</ele>
        <time>2018-04-22T19:45:53Z</time>
      </trkpt>
      <trkpt lat="46.79492" lon="-2.06771">
        <ele>5</ele>
        <time>2018-04-22T19:46:53Z</time>
      </trkpt>
      <trkpt lat="46.79479" lon="-2.06769">
        <ele>5</ele>
        <time>2018-04-22T19:47:53Z</time>
      </trkpt>
      <trkpt lat="46.79462" lon="-2.06763">
        <ele>5</ele>
        <time>2018-04-22T19:48:53Z</time>
      </trkpt>
      <trkpt lat="46.79315" lon="-2.0674">
        <ele>6</ele>
        <time>2018-04-22T19:49:53Z</time>
      </trkpt>
      <trkpt lat="46.79234" lon="-2.0673">
        <ele>9</ele>
        <time>2018-04-22T19:50:53Z</time>
      </trkpt>
      <trkpt lat="46.79219" lon="-2.06725">
        <ele>10</ele>
        <time>2018-04-22T19:51:53Z</time>
      </trkpt>
      <trkpt lat="46.79191" lon="-2.06703">
        <ele>11</ele>
        <time>2018-04-22T19:52:53Z</time>
      </trkpt>
      <trkpt lat="46.7917" lon="-2.06693">
        <ele>11</ele>
        <time>2018-04-22T19:53:53Z</time>
      </trkpt>
      <trkpt lat="46.79151" lon="-2.06693">
        <ele>13</ele>
        <time>2018-04-22T19:54:53Z</time>
      </trkpt>
      <trkpt lat="46.79145" lon="-2.06688">
        <ele>13</ele>
        <time>2018-04-22T19:55:53Z</time>
      </trkpt>
      <trkpt lat="46.79142" lon="-2.06682">
        <ele>13</ele>
        <time>2018-04-22T19:56:53Z</time>
      </trkpt>
      <trkpt lat="46.79141" lon="-2.06674">
        <ele>13</ele>
        <time>2018-04-22T19:57:53Z</time>
      </trkpt>
      <trkpt lat="46.79144" lon="-2.06661">
        <ele>13</ele>
        <time>2018-04-22T19:58:53Z</time>
      </trkpt>
      <trkpt lat="46.79145" lon="-2.06644">
        <ele>12</ele>
        <time>2018-04-22T19:59:53Z</time>
      </trkpt>
      <trkpt lat="46.79145" lon="-2.06631">
        <ele>12</ele>
        <time>2018-04-22T20:00:53Z</time>
      </trkpt>
      <trkpt lat="46.79141" lon="-2.06617">
        <ele>12</ele>
        <time>2018-04-22T20:01:53Z</time>
      </trkpt>
      <trkpt lat="46.79102" lon="-2.0651">
        <ele>14</ele>
        <time>2018-04-22T20:02:53Z</time>
      </trkpt>
      <trkpt lat="46.79096" lon="-2.06498">
        <ele>14</ele>
        <time>2018-04-22T20:03:53Z</time>
      </trkpt>
      <trkpt lat="46.79089" lon="-2.06488">
        <ele>14</ele>
        <time>2018-04-22T20:04:53Z</time>
      </trkpt>
      <trkpt lat="46.79083" lon="-2.06484">
        <ele>14</ele>
        <time>2018-04-22T20:05:53Z</time>
      </trkpt>
      <trkpt lat="46.7908" lon="-2.06479">
        <ele>14</ele>
        <time>2018-04-22T20:06:53Z</time>
      </trkpt>
      <trkpt lat="46.79077" lon="-2.06451">
        <ele>14</ele>
        <time>2018-04-22T20:07:53Z</time>
      </trkpt>
      <trkpt lat="46.7907" lon="-2.06422">
        <ele>13</ele>
        <time>2018-04-22T20:08:53Z</time>
      </trkpt>
      <trkpt lat="46.79045" lon="-2.06352">
        <ele>13</ele>
        <time>2018-04-22T20:09:53Z</time>
      </trkpt>
      <trkpt lat="46.79031" lon="-2.06293">
        <ele>12</ele>
        <time>2018-04-22T20:10:53Z</time>
      </trkpt>
      <trkpt lat="46.79024" lon="-2.06272">
        <ele>11</ele>
        <time>2018-04-22T20:11:53Z</time>
      </trkpt>
      <trkpt lat="46.79018" lon="-2.06266">
        <ele>11</ele>
        <time>2018-04-22T20:12:53Z</time>
      </trkpt>
      <trkpt lat="46.79014" lon="-2.06257">
        <ele>11</ele>
        <time>2018-04-22T20:13:53Z</time>
      </trkpt>
      <trkpt lat="46.79012" lon="-2.06246">
        <ele>11</ele>
        <time>2018-04-22T20:14:53Z</time>
      </trkpt>
      <trkpt lat="46.79014" lon="-2.06233">
        <ele>11</ele>
        <time>2018-04-22T20:15:53Z</time>
      </trkpt>
      <trkpt lat="46.79019" lon="-2.06222">
        <ele>11</ele>
        <time>2018-04-22T20:16:53Z</time>
      </trkpt>
      <trkpt lat="46.79024" lon="-2.06218">
        <ele>11</ele>
        <time>2018-04-22T20:17:53Z</time>
      </trkpt>
      <trkpt lat="46.79026" lon="-2.06208">
        <ele>11</ele>
        <time>2018-04-22T20:18:53Z</time>
      </trkpt>
      <trkpt lat="46.79035" lon="-2.06154">
        <ele>10</ele>
        <time>2018-04-22T20:19:53Z</time>
      </trkpt>
      <trkpt lat="46.79039" lon="-2.06091">
        <ele>9</ele>
        <time>2018-04-22T20:20:53Z</time>
      </trkpt>
      <trkpt lat="46.79037" lon="-2.05921">
        <ele>8</ele>
        <time>2018-04-22T20:21:53Z</time>
      </trkpt>
      <trkpt lat="46.79037" lon="-2.05921">
        <ele>8</ele>
        <time>2018-04-22T20:22:53Z</time>
      </trkpt>
      <trkpt lat="46.79037" lon="-2.05847">
        <ele>9</ele>
        <time>2018-04-22T20:23:53Z</time>
      </trkpt>
      <trkpt lat="46.7904" lon="-2.05795">
        <ele>10</ele>
        <time>2018-04-22T20:24:53Z</time>
      </trkpt>
      <trkpt lat="46.79045" lon="-2.0577">
        <ele>10</ele>
        <time>2018-04-22T20:25:53Z</time>
      </trkpt>
      <trkpt lat="46.79072" lon="-2.05668">
        <ele>4</ele>
        <time>2018-04-22T20:26:53Z</time>
      </trkpt>
      <trkpt lat="46.79074" lon="-2.05652">
        <ele>4</ele>
        <time>2018-04-22T20:27:53Z</time>
      </trkpt>
      <trkpt lat="46.79079" lon="-2.05628">
        <ele>4</ele>
        <time>2018-04-22T20:28:53Z</time>
      </trkpt>
      <trkpt lat="46.79087" lon="-2.0561">
        <ele>4</ele>
        <time>2018-04-22T20:29:53Z</time>
      </trkpt>
      <trkpt lat="46.79091" lon="-2.056">
        <ele>4</ele>
        <time>2018-04-22T20:30:53Z</time>
      </trkpt>
      <trkpt lat="46.79091" lon="-2.05593">
        <ele>4</ele>
        <time>2018-04-22T20:31:53Z</time>
      </trkpt>
      <trkpt lat="46.79096" lon="-2.05583">
        <ele>4</ele>
        <time>2018-04-22T20:32:53Z</time>
      </trkpt>
      <trkpt lat="46.79099" lon="-2.0556">
        <ele>3</ele>
        <time>2018-04-22T20:33:53Z</time>
      </trkpt>
      <trkpt lat="46.791" lon="-2.05543">
        <ele>3</ele>
        <time>2018-04-22T20:34:53Z</time>
      </trkpt>
      <trkpt lat="46.79099" lon="-2.05533">
        <ele>3</ele>
        <time>2018-04-22T20:35:53Z</time>
      </trkpt>
      <trkpt lat="46.79094" lon="-2.05526">
        <ele>3</ele>
        <time>2018-04-22T20:36:53Z</time>
      </trkpt>
      <trkpt lat="46.79085" lon="-2.05502">
        <ele>3</ele>
        <time>2018-04-22T20:37:53Z</time>
      </trkpt>
      <trkpt lat="46.79059" lon="-2.05453">
        <ele>3</ele>
        <time>2018-04-22T20:38:53Z</time>
      </trkpt>
      <trkpt lat="46.7897" lon="-2.05176">
        <ele>4</ele>
        <time>2018-04-22T20:39:53Z</time>
      </trkpt>
      <trkpt lat="46.78926" lon="-2.05064">
        <ele>3</ele>
        <time>2018-04-22T20:40:53Z</time>
      </trkpt>
      <trkpt lat="46.78867" lon="-2.04923">
        <ele>5</ele>
        <time>2018-04-22T20:41:53Z</time>
      </trkpt>
      <trkpt lat="46.78787" lon="-2.04667">
        <ele>7</ele>
        <time>2018-04-22T20:42:53Z</time>
      </trkpt>
      <trkpt lat="46.78787" lon="-2.04667">
        <ele>7</ele>
        <time>2018-04-22T20:43:53Z</time>
      </trkpt>
      <trkpt lat="46.78682" lon="-2.04414">
        <ele>7</ele>
        <time>2018-04-22T20:44:53Z</time>
      </trkpt>
      <trkpt lat="46.78632" lon="-2.04266">
        <ele>5</ele>
        <time>2018-04-22T20:45:53Z</time>
      </trkpt>
      <trkpt lat="46.78576" lon="-2.04132">
        <ele>5</ele>
        <time>2018-04-22T20:46:53Z</time>
      </trkpt>
      <trkpt lat="46.78539" lon="-2.03991">
        <ele>7</ele>
        <time>2018-04-22T20:47:53Z</time>
      </trkpt>
      <trkpt lat="46.78496" lon="-2.03875">
        <ele>6</ele>
        <time>2018-04-22T20:48:53Z</time>
      </trkpt>
      <trkpt lat="46.78465" lon="-2.0378">
        <ele>6</ele>
        <time>2018-04-22T20:49:53Z</time>
      </trkpt>
      <trkpt lat="46.78403" lon="-2.03631">
        <ele>7</ele>
        <time>2018-04-22T20:50:53Z</time>
      </trkpt>
      <trkpt lat="46.78325" lon="-2.03684">
        <ele>10</ele>
        <time>2018-04-22T20:51:53Z</time>
      </trkpt>
      <trkpt lat="46.78254" lon="-2.03757">
        <ele>10</ele>
        <time>2018-04-22T20:52:53Z</time>
      </trkpt>
      <trkpt lat="46.78234" lon="-2.03785">
        <ele>10</ele>
        <time>2018-04-22T20:53:53Z</time>
      </trkpt>
      <trkpt lat="46.78237" lon="-2.03791">
        <ele>10</ele>
        <time>2018-04-22T20:54:53Z</time>
      </trkpt>
      <trkpt lat="46.78235" lon="-2.03799">
        <ele>10</ele>
        <time>2018-04-22T20:55:53Z</time>
      </trkpt>
      <trkpt lat="46.7823" lon="-2.03801">
        <ele>9</ele>
        <time>2018-04-22T20:56:53Z</time>
      </trkpt>
      <trkpt lat="46.78225" lon="-2.03797">
        <ele>9</ele>
        <time>2018-04-22T20:57:53Z</time>
      </trkpt>
      <trkpt lat="46.78225" lon="-2.03788">
        <ele>9</ele>
        <time>2018-04-22T20:58:53Z</time>
      </trkpt>
      <trkpt lat="46.78218" lon="-2.03789">
        <ele>9</ele>
        <time>2018-04-22T20:59:53Z</time>
      </trkpt>
      <trkpt lat="46.78128" lon="-2.03842">
        <ele>6</ele>
        <time>2018-04-22T21:00:53Z</time>
      </trkpt>
      <trkpt lat="46.78116" lon="-2.03846">
        <ele>6</ele>
        <time>2018-04-22T21:01:53Z</time>
      </trkpt>
      <trkpt lat="46.78115" lon="-2.0385">
        <ele>6</ele>
        <time>2018-04-22T21:02:53Z</time>
      </trkpt>
      <trkpt lat="46.78109" lon="-2.03853">
        <ele>6</ele>
        <time>2018-04-22T21:03:53Z</time>
      </trkpt>
      <trkpt lat="46.78104" lon="-2.03848">
        <ele>5</ele>
        <time>2018-04-22T21:04:53Z</time>
      </trkpt>
      <trkpt lat="46.78106" lon="-2.03838">
        <ele>6</ele>
        <time>2018-04-22T21:05:53Z</time>
      </trkpt>
      <trkpt lat="46.781" lon="-2.03828">
        <ele>6</ele>
        <time>2018-04-22T21:06:53Z</time>
      </trkpt>
      <trkpt lat="46.78049" lon="-2.03802">
        <ele>6</ele>
        <time>2018-04-22T21:07:53Z</time>
      </trkpt>
      <trkpt lat="46.78049" lon="-2.03802">
        <ele>6</ele>
        <time>2018-04-22T21:08:53Z</time>
      </trkpt>
      <trkpt lat="46.7795" lon="-2.0375">
        <ele>6</ele>
        <time>2018-04-22T21:09:53Z</time>
      </trkpt>
      <trkpt lat="46.77912" lon="-2.03742">
        <ele>6</ele>
        <time>2018-04-22T21:10:53Z</time>
      </trkpt>
      <trkpt lat="46.77871" lon="-2.03729">
        <ele>5</ele>
        <time>2018-04-22T21:11:53Z</time>
      </trkpt>
      <trkpt lat="46.77795" lon="-2.03688">
        <ele>4</ele>
        <time>2018-04-22T21:12:53Z</time>
      </trkpt>
      <trkpt lat="46.77663" lon="-2.0356">
        <ele>6</ele>
        <time>2018-04-22T21:13:53Z</time>
      </trkpt>
      <trkpt lat="46.77639" lon="-2.03531">
        <ele>5</ele>
        <time>2018-04-22T21:14:53Z</time>
      </trkpt>
      <trkpt lat="46.77577" lon="-2.03445">
        <ele>4</ele>
        <time>2018-04-22T21:15:53Z</time>
      </trkpt>
      <trkpt lat="46.77518" lon="-2.0337">
        <ele>5</ele>
        <time>2018-04-22T21:16:53Z</time>
      </trkpt>
      <trkpt lat="46.77469" lon="-2.03298">
        <ele>6</ele>
        <time>2018-04-22T21:17:53Z</time>
      </trkpt>
      <trkpt lat="46.77381" lon="-2.03195">
        <ele>5</ele>
        <time>2018-04-22T21:18:53Z</time>
      </trkpt>
      <trkpt lat="46.77205" lon="-2.02981">
        <ele>7</ele>
        <time>2018-04-22T21:19:53Z</time>
      </trkpt>
      <trkpt lat="46.77139" lon="-2.02896">
        <ele>5</ele>
        <time>2018-04-22T21:20:53Z</time>
      </trkpt>
      <trkpt lat="46.77098" lon="-2.02853">
        <ele>3</ele>
        <time>2018-04-22T21:21:53Z</time>
      </trkpt>
      <trkpt lat="46.77052" lon="-2.02811">
        <ele>3</ele>
        <time>2018-04-22T21:22:53Z</time>
      </trkpt>
      <trkpt lat="46.77004" lon="-2.02791">
        <ele>3</ele>
        <time>2018-04-22T21:23:53Z</time>
      </trkpt>
      <trkpt lat="46.76949" lon="-2.02742">
        <ele>3</ele>
        <time>2018-04-22T21:24:53Z</time>
      </trkpt>
      <trkpt lat="46.76898" lon="-2.02681">
        <ele>3</ele>
        <time>2018-04-22T21:25:53Z</time>
      </trkpt>
      <trkpt lat="46.76844" lon="-2.02625">
        <ele>3</ele>
        <time>2018-04-22T21:26:53Z</time>
      </trkpt>
      <trkpt lat="46.76797" lon="-2.02595">
        <ele>3</ele>
        <time>2018-04-22T21:27:53Z</time>
      </trkpt>
      <trkpt lat="46.7675" lon="-2.02551">
        <ele>3</ele>
        <time>2018-04-22T21:28:53Z</time>
      </trkpt>
      <trkpt lat="46.76714" lon="-2.02506">
        <ele>3</ele>
        <time>2018-04-22T21:29:53Z</time>
      </trkpt>
      <trkpt lat="46.7665" lon="-2.02406">
        <ele>3</ele>
        <time>2018-04-22T21:30:53Z</time>
      </trkpt>
      <trkpt lat="46.76522" lon="-2.02173">
        <ele>3</ele>
        <time>2018-04-22T21:31:53Z</time>
      </trkpt>
      <trkpt lat="46.76486" lon="-2.02133">
        <ele>3</ele>
        <time>2018-04-22T21:32:53Z</time>
      </trkpt>
      <trkpt lat="46.76415" lon="-2.02062">
        <ele>5</ele>
        <time>2018-04-22T21:33:53Z</time>
      </trkpt>
      <trkpt lat="46.76366" lon="-2.02029">
        <ele>5</ele>
        <time>2018-04-22T21:34:53Z</time>
      </trkpt>
      <trkpt lat="46.76314" lon="-2.02005">
        <ele>6</ele>
        <time>2018-04-22T21:35:53Z</time>
      </trkpt>
      <trkpt lat="46.76139" lon="-2.01896">
        <ele>5</ele>
        <time>2018-04-22T21:36:53Z</time>
      </trkpt>
      <trkpt lat="46.75841" lon="-2.0176">
        <ele>5</ele>
        <time>2018-04-22T21:37:53Z</time>
      </trkpt>
      <trkpt lat="46.75744" lon="-2.01748">
        <ele>5</ele>
        <time>2018-04-22T21:38:53Z</time>
      </trkpt>
      <trkpt lat="46.75691" lon="-2.01739">
        <ele>5</ele>
        <time>2018-04-22T21:39:53Z</time>
      </trkpt>
      <trkpt lat="46.75691" lon="-2.01739">
        <ele>5</ele>
        <time>2018-04-22T21:40:53Z</time>
      </trkpt>
      <trkpt lat="46.75609" lon="-2.01724">
        <ele>3</ele>
        <time>2018-04-22T21:41:53Z</time>
      </trkpt>
      <trkpt lat="46.75563" lon="-2.017">
        <ele>2</ele>
        <time>2018-04-22T21:42:53Z</time>
      </trkpt>
      <trkpt lat="46.75534" lon="-2.01671">
        <ele>2</ele>
        <time>2018-04-22T21:43:53Z</time>
      </trkpt>
      <trkpt lat="46.75481" lon="-2.01588">
        <ele>3</ele>
        <time>2018-04-22T21:44:53Z</time>
      </trkpt>
      <trkpt lat="46.75429" lon="-2.01478">
        <ele>2</ele>
        <time>2018-04-22T21:45:53Z</time>
      </trkpt>
      <trkpt lat="46.75381" lon="-2.01422">
        <ele>2</ele>
        <time>2018-04-22T21:46:53Z</time>
      </trkpt>
      <trkpt lat="46.75297" lon="-2.01472">
        <ele>1</ele>
        <time>2018-04-22T21:47:53Z</time>
      </trkpt>
      <trkpt lat="46.75223" lon="-2.01512">
        <ele>2</ele>
        <time>2018-04-22T21:48:53Z</time>
      </trkpt>
      <trkpt lat="46.75173" lon="-2.01545">
        <ele>1</ele>
        <time>2018-04-22T21:49:53Z</time>
      </trkpt>
      <trkpt lat="46.7514" lon="-2.01575">
        <ele>3</ele>
        <time>2018-04-22T21:50:53Z</time>
      </trkpt>
      <trkpt lat="46.75131" lon="-2.01589">
        <ele>3</ele>
        <time>2018-04-22T21:51:53Z</time>
      </trkpt>
      <trkpt lat="46.75136" lon="-2.01597">
        <ele>3</ele>
        <time>2018-04-22T21:52:53Z</time>
      </trkpt>
      <trkpt lat="46.75137" lon="-2.01608">
        <ele>3</ele>
        <time>2018-04-22T21:53:53Z</time>
      </trkpt>
      <trkpt lat="46.75135" lon="-2.01618">
        <ele>3</ele>
        <time>2018-04-22T21:54:53Z</time>
      </trkpt>
      <trkpt lat="46.7513" lon="-2.01625">
        <ele>4</ele>
        <time>2018-04-22T21:55:53Z</time>
      </trkpt>
      <trkpt lat="46.75124" lon="-2.01628">
        <ele>4</ele>
        <time>2018-04-22T21:56:53Z</time>
      </trkpt>
      <trkpt lat="46.75116" lon="-2.01626">
        <ele>4</ele>
        <time>2018-04-22T21:57:53Z</time>
      </trkpt>
      <trkpt lat="46.75111" lon="-2.01621">
        <ele>4</ele>
        <time>2018-04-22T21:58:53Z</time>
      </trkpt>
      <trkpt lat="46.75109" lon="-2.01614">
        <ele>4</ele>
        <time>2018-04-22T21:59:53Z</time>
      </trkpt>
      <trkpt lat="46.75108" lon="-2.01606">
        <ele>4</ele>
        <time>2018-04-22T22:00:53Z</time>
      </trkpt>
      <trkpt lat="46.75111" lon="-2.01593">
        <ele>3</ele>
        <time>2018-04-22T22:01:53Z</time>
      </trkpt>
      <trkpt lat="46.75093" lon="-2.01579">
        <ele>4</ele>
        <time>2018-04-22T22:02:53Z</time>
      </trkpt>
      <trkpt lat="46.75062" lon="-2.01541">
        <ele>4</ele>
        <time>2018-04-22T22:03:53Z</time>
      </trkpt>
      <trkpt lat="46.75018" lon="-2.01479">
        <ele>4</ele>
        <time>2018-04-22T22:04:53Z</time>
      </trkpt>
      <trkpt lat="46.74971" lon="-2.01393">
        <ele>5</ele>
        <time>2018-04-22T22:05:53Z</time>
      </trkpt>
      <trkpt lat="46.74946" lon="-2.0136">
        <ele>6</ele>
        <time>2018-04-22T22:06:53Z</time>
      </trkpt>
      <trkpt lat="46.7493" lon="-2.01347">
        <ele>7</ele>
        <time>2018-04-22T22:07:53Z</time>
      </trkpt>
      <trkpt lat="46.74799" lon="-2.01275">
        <ele>6</ele>
        <time>2018-04-22T22:08:53Z</time>
      </trkpt>
      <trkpt lat="46.74683" lon="-2.012">
        <ele>8</ele>
        <time>2018-04-22T22:09:53Z</time>
      </trkpt>
      <trkpt lat="46.74665" lon="-2.01185">
        <ele>8</ele>
        <time>2018-04-22T22:10:53Z</time>
      </trkpt>
      <trkpt lat="46.74637" lon="-2.01158">
        <ele>8</ele>
        <time>2018-04-22T22:11:53Z</time>
      </trkpt>
      <trkpt lat="46.74527" lon="-2.01027">
        <ele>5</ele>
        <time>2018-04-22T22:12:53Z</time>
      </trkpt>
      <trkpt lat="46.74368" lon="-2.0089">
        <ele>3</ele>
        <time>2018-04-22T22:13:53Z</time>
      </trkpt>
      <trkpt lat="46.74347" lon="-2.00869">
        <ele>3</ele>
        <time>2018-04-22T22:14:53Z</time>
      </trkpt>
      <trkpt lat="46.74334" lon="-2.00852">
        <ele>3</ele>
        <time>2018-04-22T22:15:53Z</time>
      </trkpt>
      <trkpt lat="46.74263" lon="-2.00734">
        <ele>2</ele>
        <time>2018-04-22T22:16:53Z</time>
      </trkpt>
      <trkpt lat="46.74151" lon="-2.00568">
        <ele>3</ele>
        <time>2018-04-22T22:17:53Z</time>
      </trkpt>
      <trkpt lat="46.74116" lon="-2.00521">
        <ele>3</ele>
        <time>2018-04-22T22:18:53Z</time>
      </trkpt>
      <trkpt lat="46.74096" lon="-2.00482">
        <ele>3</ele>
        <time>2018-04-22T22:19:53Z</time>
      </trkpt>
      <trkpt lat="46.74072" lon="-2.00426">
        <ele>3</ele>
        <time>2018-04-22T22:20:53Z</time>
      </trkpt>
      <trkpt lat="46.74066" lon="-2.00407">
        <ele>3</ele>
        <time>2018-04-22T22:21:53Z</time>
      </trkpt>
      <trkpt lat="46.74064" lon="-2.00392">
        <ele>3</ele>
        <time>2018-04-22T22:22:53Z</time>
      </trkpt>
      <trkpt lat="46.74065" lon="-2.00361">
        <ele>3</ele>
        <time>2018-04-22T22:23:53Z</time>
      </trkpt>
      <trkpt lat="46.74081" lon="-2.00289">
        <ele>3</ele>
        <time>2018-04-22T22:24:53Z</time>
      </trkpt>
      <trkpt lat="46.74114" lon="-2.00165">
        <ele>5</ele>
        <time>2018-04-22T22:25:53Z</time>
      </trkpt>
      <trkpt lat="46.74127" lon="-2.00089">
        <ele>6</ele>
        <time>2018-04-22T22:26:53Z</time>
      </trkpt>
      <trkpt lat="46.74132" lon="-2.00041">
        <ele>6</ele>
        <time>2018-04-22T22:27:53Z</time>
      </trkpt>
      <trkpt lat="46.74138" lon="-1.9997">
        <ele>6</ele>
        <time>2018-04-22T22:28:53Z</time>
      </trkpt>
      <trkpt lat="46.74156" lon="-1.99676">
        <ele>5</ele>
        <time>2018-04-22T22:29:53Z</time>
      </trkpt>
      <trkpt lat="46.74166" lon="-1.99622">
        <ele>6</ele>
        <time>2018-04-22T22:30:53Z</time>
      </trkpt>
      <trkpt lat="46.74204" lon="-1.99476">
        <ele>5</ele>
        <time>2018-04-22T22:31:53Z</time>
      </trkpt>
      <trkpt lat="46.7421" lon="-1.99439">
        <ele>5</ele>
        <time>2018-04-22T22:32:53Z</time>
      </trkpt>
      <trkpt lat="46.74215" lon="-1.99395">
        <ele>5</ele>
        <time>2018-04-22T22:33:53Z</time>
      </trkpt>
      <trkpt lat="46.74215" lon="-1.99367">
        <ele>5</ele>
        <time>2018-04-22T22:34:53Z</time>
      </trkpt>
      <trkpt lat="46.74211" lon="-1.99346">
        <ele>5</ele>
        <time>2018-04-22T22:35:53Z</time>
      </trkpt>
      <trkpt lat="46.74206" lon="-1.99331">
        <ele>6</ele>
        <time>2018-04-22T22:36:53Z</time>
      </trkpt>
      <trkpt lat="46.74202" lon="-1.99322">
        <ele>5</ele>
        <time>2018-04-22T22:37:53Z</time>
      </trkpt>
      <trkpt lat="46.74198" lon="-1.99325">
        <ele>6</ele>
        <time>2018-04-22T22:38:53Z</time>
      </trkpt>
      <trkpt lat="46.74189" lon="-1.99326">
        <ele>6</ele>
        <time>2018-04-22T22:39:53Z</time>
      </trkpt>
      <trkpt lat="46.74182" lon="-1.9932">
        <ele>6</ele>
        <time>2018-04-22T22:40:53Z</time>
      </trkpt>
      <trkpt lat="46.74177" lon="-1.99308">
        <ele>6</ele>
        <time>2018-04-22T22:41:53Z</time>
      </trkpt>
      <trkpt lat="46.74178" lon="-1.99296">
        <ele>5</ele>
        <time>2018-04-22T22:42:53Z</time>
      </trkpt>
      <trkpt lat="46.7418" lon="-1.9929">
        <ele>5</ele>
        <time>2018-04-22T22:43:53Z</time>
      </trkpt>
      <trkpt lat="46.74169" lon="-1.99283">
        <ele>5</ele>
        <time>2018-04-22T22:44:53Z</time>
      </trkpt>
      <trkpt lat="46.7401" lon="-1.99263">
        <ele>9</ele>
        <time>2018-04-22T22:45:53Z</time>
      </trkpt>
      <trkpt lat="46.73969" lon="-1.99248">
        <ele>9</ele>
        <time>2018-04-22T22:46:53Z</time>
      </trkpt>
      <trkpt lat="46.73937" lon="-1.99228">
        <ele>8</ele>
        <time>2018-04-22T22:47:53Z</time>
      </trkpt>
      <trkpt lat="46.73911" lon="-1.99208">
        <ele>8</ele>
        <time>2018-04-22T22:48:53Z</time>
      </trkpt>
      <trkpt lat="46.73911" lon="-1.99208">
        <ele>8</ele>
        <time>2018-04-22T22:49:53Z</time>
      </trkpt>
      <trkpt lat="46.73868" lon="-1.99171">
        <ele>7</ele>
        <time>2018-04-22T22:50:53Z</time>
      </trkpt>
      <trkpt lat="46.73718" lon="-1.99022">
        <ele>8</ele>
        <time>2018-04-22T22:51:53Z</time>
      </trkpt>
      <trkpt lat="46.73548" lon="-1.98858">
        <ele>7</ele>
        <time>2018-04-22T22:52:53Z</time>
      </trkpt>
      <trkpt lat="46.7342" lon="-1.98729">
        <ele>9</ele>
        <time>2018-04-22T22:53:53Z</time>
      </trkpt>
      <trkpt lat="46.73407" lon="-1.98711">
        <ele>9</ele>
        <time>2018-04-22T22:54:53Z</time>
      </trkpt>
      <trkpt lat="46.73401" lon="-1.98697">
        <ele>9</ele>
        <time>2018-04-22T22:55:53Z</time>
      </trkpt>
      <trkpt lat="46.73394" lon="-1.98674">
        <ele>9</ele>
        <time>2018-04-22T22:56:53Z</time>
      </trkpt>
      <trkpt lat="46.73389" lon="-1.98647">
        <ele>9</ele>
        <time>2018-04-22T22:57:53Z</time>
      </trkpt>
      <trkpt lat="46.73382" lon="-1.98567">
        <ele>9</ele>
        <time>2018-04-22T22:58:53Z</time>
      </trkpt>
      <trkpt lat="46.73375" lon="-1.9854">
        <ele>9</ele>
        <time>2018-04-22T22:59:53Z</time>
      </trkpt>
      <trkpt lat="46.73366" lon="-1.98516">
        <ele>9</ele>
        <time>2018-04-22T23:00:53Z</time>
      </trkpt>
      <trkpt lat="46.73352" lon="-1.98492">
        <ele>10</ele>
        <time>2018-04-22T23:01:53Z</time>
      </trkpt>
      <trkpt lat="46.73333" lon="-1.98467">
        <ele>10</ele>
        <time>2018-04-22T23:02:53Z</time>
      </trkpt>
      <trkpt lat="46.73184" lon="-1.98324">
        <ele>12</ele>
        <time>2018-04-22T23:03:53Z</time>
      </trkpt>
      <trkpt lat="46.73163" lon="-1.98309">
        <ele>12</ele>
        <time>2018-04-22T23:04:53Z</time>
      </trkpt>
      <trkpt lat="46.72736" lon="-1.98125">
        <ele>11</ele>
        <time>2018-04-22T23:05:53Z</time>
      </trkpt>
      <trkpt lat="46.725" lon="-1.97964">
        <ele>8</ele>
        <time>2018-04-22T23:06:53Z</time>
      </trkpt>
      <trkpt lat="46.72479" lon="-1.97942">
        <ele>8</ele>
        <time>2018-04-22T23:07:53Z</time>
      </trkpt>
      <trkpt lat="46.72452" lon="-1.97911">
        <ele>8</ele>
        <time>2018-04-22T23:08:53Z</time>
      </trkpt>
      <trkpt lat="46.72408" lon="-1.97845">
        <ele>7</ele>
        <time>2018-04-22T23:09:53Z</time>
      </trkpt>
      <trkpt lat="46.72404" lon="-1.97848">
        <ele>7</ele>
        <time>2018-04-22T23:10:53Z</time>
      </trkpt>
      <trkpt lat="46.724" lon="-1.97848">
        <ele>7</ele>
        <time>2018-04-22T23:11:53Z</time>
      </trkpt>
      <trkpt lat="46.72396" lon="-1.97844">
        <ele>7</ele>
        <time>2018-04-22T23:12:53Z</time>
      </trkpt>
      <trkpt lat="46.72394" lon="-1.97837">
        <ele>7</ele>
        <time>2018-04-22T23:13:53Z</time>
      </trkpt>
      <trkpt lat="46.72395" lon="-1.9783">
        <ele>7</ele>
        <time>2018-04-22T23:14:53Z</time>
      </trkpt>
      <trkpt lat="46.72398" lon="-1.97826">
        <ele>7</ele>
        <time>2018-04-22T23:15:53Z</time>
      </trkpt>
      <trkpt lat="46.72077" lon="-1.97262">
        <ele>9</ele>
        <time>2018-04-22T23:16:53Z</time>
      </trkpt>
      <trkpt lat="46.71876" lon="-1.9688">
        <ele>15</ele>
        <time>2018-04-22T23:17:53Z</time>
      </trkpt>
      <trkpt lat="46.7187" lon="-1.96879">
        <ele>15</ele>
        <time>2018-04-22T23:18:53Z</time>
      </trkpt>
      <trkpt lat="46.71864" lon="-1.96875">
        <ele>15</ele>
        <time>2018-04-22T23:19:53Z</time>
      </trkpt>
      <trkpt lat="46.71846" lon="-1.96871">
        <ele>15</ele>
        <time>2018-04-22T23:20:53Z</time>
      </trkpt>
      <trkpt lat="46.7183" lon="-1.96883">
        <ele>15</ele>
        <time>2018-04-22T23:21:53Z</time>
      </trkpt>
      <trkpt lat="46.71822" lon="-1.96903">
        <ele>15</ele>
        <time>2018-04-22T23:22:53Z</time>
      </trkpt>
      <trkpt lat="46.71813" lon="-1.9691">
        <ele>14</ele>
        <time>2018-04-22T23:23:53Z</time>
      </trkpt>
      <trkpt lat="46.71773" lon="-1.97003">
        <ele>14</ele>
        <time>2018-04-22T23:24:53Z</time>
      </trkpt>
      <trkpt lat="46.71761" lon="-1.97027">
        <ele>14</ele>
        <time>2018-04-22T23:25:53Z</time>
      </trkpt>
      <trkpt lat="46.71733" lon="-1.97068">
        <ele>14</ele>
        <time>2018-04-22T23:26:53Z</time>
      </trkpt>
      <trkpt lat="46.71733" lon="-1.97068">
        <ele>14</ele>
        <time>2018-04-22T23:27:53Z</time>
      </trkpt>
      <trkpt lat="46.71682" lon="-1.9714">
        <ele>13</ele>
        <time>2018-04-22T23:28:53Z</time>
      </trkpt>
      <trkpt lat="46.71491" lon="-1.97469">
        <ele>12</ele>
        <time>2018-04-22T23:29:53Z</time>
      </trkpt>
      <trkpt lat="46.71415" lon="-1.97595">
        <ele>9</ele>
        <time>2018-04-22T23:30:53Z</time>
      </trkpt>
      <trkpt lat="46.71403" lon="-1.97608">
        <ele>9</ele>
        <time>2018-04-22T23:31:53Z</time>
      </trkpt>
      <trkpt lat="46.71383" lon="-1.97636">
        <ele>9</ele>
        <time>2018-04-22T23:32:53Z</time>
      </trkpt>
      <trkpt lat="46.71356" lon="-1.97665">
        <ele>9</ele>
        <time>2018-04-22T23:33:53Z</time>
      </trkpt>
      <trkpt lat="46.71304" lon="-1.97717">
        <ele>8</ele>
        <time>2018-04-22T23:34:53Z</time>
      </trkpt>
      <trkpt lat="46.71295" lon="-1.97729">
        <ele>8</ele>
        <time>2018-04-22T23:35:53Z</time>
      </trkpt>
      <trkpt lat="46.71241" lon="-1.97776">
        <ele>6</ele>
        <time>2018-04-22T23:36:53Z</time>
      </trkpt>
      <trkpt lat="46.71239" lon="-1.97785">
        <ele>6</ele>
        <time>2018-04-22T23:37:53Z</time>
      </trkpt>
      <trkpt lat="46.71237" lon="-1.97786">
        <ele>6</ele>
        <time>2018-04-22T23:38:53Z</time>
      </trkpt>
      <trkpt lat="46.71231" lon="-1.97784">
        <ele>6</ele>
        <time>2018-04-22T23:39:53Z</time>
      </trkpt>
      <trkpt lat="46.71228" lon="-1.97786">
        <ele>6</ele>
        <time>2018-04-22T23:40:53Z</time>
      </trkpt>
      <trkpt lat="46.71215" lon="-1.97797">
        <ele>6</ele>
        <time>2018-04-22T23:41:53Z</time>
      </trkpt>
      <trkpt lat="46.71176" lon="-1.97825">
        <ele>7</ele>
        <time>2018-04-22T23:42:53Z</time>
      </trkpt>
      <trkpt lat="46.71137" lon="-1.97849">
        <ele>8</ele>
        <time>2018-04-22T23:43:53Z</time>
      </trkpt>
      <trkpt lat="46.71133" lon="-1.97853">
        <ele>8</ele>
        <time>2018-04-22T23:44:53Z</time>
      </trkpt>
      <trkpt lat="46.71141" lon="-1.97895">
        <ele>8</ele>
        <time>2018-04-22T23:45:53Z</time>
      </trkpt>
      <trkpt lat="46.71141" lon="-1.97901">
        <ele>8</ele>
        <time>2018-04-22T23:46:53Z</time>
      </trkpt>
      <trkpt lat="46.71139" lon="-1.97906">
        <ele>8</ele>
        <time>2018-04-22T23:47:53Z</time>
      </trkpt>
      <trkpt lat="46.71134" lon="-1.97912">
        <ele>8</ele>
        <time>2018-04-22T23:48:53Z</time>
      </trkpt>
      <trkpt lat="46.71029" lon="-1.97942">
        <ele>9</ele>
        <time>2018-04-22T23:49:53Z</time>
      </trkpt>
      <trkpt lat="46.71014" lon="-1.97942">
        <ele>9</ele>
        <time>2018-04-22T23:50:53Z</time>
      </trkpt>
      <trkpt lat="46.71013" lon="-1.97944">
        <ele>9</ele>
        <time>2018-04-22T23:51:53Z</time>
      </trkpt>
      <trkpt lat="46.71009" lon="-1.97946">
        <ele>9</ele>
        <time>2018-04-22T23:52:53Z</time>
      </trkpt>
      <trkpt lat="46.71004" lon="-1.9794">
        <ele>9</ele>
        <time>2018-04-22T23:53:53Z</time>
      </trkpt>
      <trkpt lat="46.70996" lon="-1.97947">
        <ele>9</ele>
        <time>2018-04-22T23:54:53Z</time>
      </trkpt>
      <trkpt lat="46.70975" lon="-1.97956">
        <ele>9</ele>
        <time>2018-04-22T23:55:53Z</time>
      </trkpt>
      <trkpt lat="46.70957" lon="-1.97961">
        <ele>9</ele>
        <time>2018-04-22T23:56:53Z</time>
      </trkpt>
      <trkpt lat="46.70943" lon="-1.97961">
        <ele>9</ele>
        <time>2018-04-22T23:57:53Z</time>
      </trkpt>
      <trkpt lat="46.70926" lon="-1.97955">
        <ele>9</ele>
        <time>2018-04-22T23:58:53Z</time>
      </trkpt>
      <trkpt lat="46.70817" lon="-1.97905">
        <ele>8</ele>
        <time>2018-04-22T23:59:53Z</time>
      </trkpt>
      <trkpt lat="46.7075" lon="-1.97898">
        <ele>7</ele>
        <time>2018-04-23T00:00:53Z</time>
      </trkpt>
      <trkpt lat="46.70747" lon="-1.97897">
        <ele>7</ele>
        <time>2018-04-23T00:01:53Z</time>
      </trkpt>
      <trkpt lat="46.70747" lon="-1.97904">
        <ele>6</ele>
        <time>2018-04-23T00:02:53Z</time>
      </trkpt>
      <trkpt lat="46.7069" lon="-1.97898">
        <ele>6</ele>
        <time>2018-04-23T00:03:53Z</time>
      </trkpt>
      <trkpt lat="46.70672" lon="-1.97899">
        <ele>6</ele>
        <time>2018-04-23T00:04:53Z</time>
      </trkpt>
      <trkpt lat="46.7064" lon="-1.97905">
        <ele>5</ele>
        <time>2018-04-23T00:05:53Z</time>
      </trkpt>
      <trkpt lat="46.70582" lon="-1.97925">
        <ele>5</ele>
        <time>2018-04-23T00:06:53Z</time>
      </trkpt>
      <trkpt lat="46.70558" lon="-1.9793">
        <ele>4</ele>
        <time>2018-04-23T00:07:53Z</time>
      </trkpt>
      <trkpt lat="46.70526" lon="-1.97927">
        <ele>4</ele>
        <time>2018-04-23T00:08:53Z</time>
      </trkpt>
      <trkpt lat="46.705" lon="-1.97917">
        <ele>5</ele>
        <time>2018-04-23T00:09:53Z</time>
      </trkpt>
      <trkpt lat="46.70476" lon="-1.97905">
        <ele>5</ele>
        <time>2018-04-23T00:10:53Z</time>
      </trkpt>
      <trkpt lat="46.70463" lon="-1.97896">
        <ele>5</ele>
        <time>2018-04-23T00:11:53Z</time>
      </trkpt>
      <trkpt lat="46.70445" lon="-1.9788">
        <ele>6</ele>
        <time>2018-04-23T00:12:53Z</time>
      </trkpt>
      <trkpt lat="46.7024" lon="-1.9767">
        <ele>11</ele>
        <time>2018-04-23T00:13:53Z</time>
      </trkpt>
      <trkpt lat="46.70206" lon="-1.97631">
        <ele>11</ele>
        <time>2018-04-23T00:14:53Z</time>
      </trkpt>
      <trkpt lat="46.70005" lon="-1.97359">
        <ele>12</ele>
        <time>2018-04-23T00:15:53Z</time>
      </trkpt>
      <trkpt lat="46.69965" lon="-1.97316">
        <ele>10</ele>
        <time>2018-04-23T00:16:53Z</time>
      </trkpt>
      <trkpt lat="46.69944" lon="-1.97298">
        <ele>8</ele>
        <time>2018-04-23T00:17:53Z</time>
      </trkpt>
      <trkpt lat="46.69893" lon="-1.97261">
        <ele>7</ele>
        <time>2018-04-23T00:18:53Z</time>
      </trkpt>
      <trkpt lat="46.69861" lon="-1.97234">
        <ele>8</ele>
        <time>2018-04-23T00:19:53Z</time>
      </trkpt>
      <trkpt lat="46.69774" lon="-1.97167">
        <ele>10</ele>
        <time>2018-04-23T00:20:53Z</time>
      </trkpt>
      <trkpt lat="46.69577" lon="-1.96959">
        <ele>8</ele>
        <time>2018-04-23T00:21:53Z</time>
      </trkpt>
      <trkpt lat="46.69389" lon="-1.96776">
        <ele>10</ele>
        <time>2018-04-23T00:22:53Z</time>
      </trkpt>
      <trkpt lat="46.69373" lon="-1.96758">
        <ele>9</ele>
        <time>2018-04-23T00:23:53Z</time>
      </trkpt>
      <trkpt lat="46.69351" lon="-1.9672">
        <ele>9</ele>
        <time>2018-04-23T00:24:53Z</time>
      </trkpt>
      <trkpt lat="46.69334" lon="-1.96677">
        <ele>10</ele>
        <time>2018-04-23T00:25:53Z</time>
      </trkpt>
      <trkpt lat="46.6932" lon="-1.96621">
        <ele>11</ele>
        <time>2018-04-23T00:26:53Z</time>
      </trkpt>
      <trkpt lat="46.69314" lon="-1.96557">
        <ele>11</ele>
        <time>2018-04-23T00:27:53Z</time>
      </trkpt>
      <trkpt lat="46.69316" lon="-1.96505">
        <ele>12</ele>
        <time>2018-04-23T00:28:53Z</time>
      </trkpt>
      <trkpt lat="46.69321" lon="-1.96419">
        <ele>14</ele>
        <time>2018-04-23T00:29:53Z</time>
      </trkpt>
      <trkpt lat="46.69321" lon="-1.96419">
        <ele>14</ele>
        <time>2018-04-23T00:30:53Z</time>
      </trkpt>
      <trkpt lat="46.69327" lon="-1.96327">
        <ele>15</ele>
        <time>2018-04-23T00:31:53Z</time>
      </trkpt>
      <trkpt lat="46.69325" lon="-1.96164">
        <ele>10</ele>
        <time>2018-04-23T00:32:53Z</time>
      </trkpt>
      <trkpt lat="46.69329" lon="-1.96138">
        <ele>8</ele>
        <time>2018-04-23T00:33:53Z</time>
      </trkpt>
      <trkpt lat="46.69334" lon="-1.96125">
        <ele>7</ele>
        <time>2018-04-23T00:34:53Z</time>
      </trkpt>
      <trkpt lat="46.69339" lon="-1.96117">
        <ele>7</ele>
        <time>2018-04-23T00:35:53Z</time>
      </trkpt>
      <trkpt lat="46.69354" lon="-1.96102">
        <ele>6</ele>
        <time>2018-04-23T00:36:53Z</time>
      </trkpt>
      <trkpt lat="46.69399" lon="-1.96064">
        <ele>4</ele>
        <time>2018-04-23T00:37:53Z</time>
      </trkpt>
      <trkpt lat="46.69411" lon="-1.9605">
        <ele>4</ele>
        <time>2018-04-23T00:38:53Z</time>
      </trkpt>
      <trkpt lat="46.69429" lon="-1.96023">
        <ele>3</ele>
        <time>2018-04-23T00:39:53Z</time>
      </trkpt>
      <trkpt lat="46.69439" lon="-1.96">
        <ele>3</ele>
        <time>2018-04-23T00:40:53Z</time>
      </trkpt>
      <trkpt lat="46.69444" lon="-1.9598">
        <ele>3</ele>
        <time>2018-04-23T00:41:53Z</time>
      </trkpt>
      <trkpt lat="46.69447" lon="-1.95955">
        <ele>3</ele>
        <time>2018-04-23T00:42:53Z</time>
      </trkpt>
      <trkpt lat="46.69468" lon="-1.95751">
        <ele>7</ele>
        <time>2018-04-23T00:43:53Z</time>
      </trkpt>
      <trkpt lat="46.69503" lon="-1.95589">
        <ele>8</ele>
        <time>2018-04-23T00:44:53Z</time>
      </trkpt>
      <trkpt lat="46.69533" lon="-1.95514">
        <ele>7</ele>
        <time>2018-04-23T00:45:53Z</time>
      </trkpt>
      <trkpt lat="46.69547" lon="-1.95469">
        <ele>7</ele>
        <time>2018-04-23T00:46:53Z</time>
      </trkpt>
      <trkpt lat="46.69551" lon="-1.95447">
        <ele>8</ele>
        <time>2018-04-23T00:47:53Z</time>
      </trkpt>
      <trkpt lat="46.6955" lon="-1.95431">
        <ele>8</ele>
        <time>2018-04-23T00:48:53Z</time>
      </trkpt>
      <trkpt lat="46.69523" lon="-1.95293">
        <ele>6</ele>
        <time>2018-04-23T00:49:53Z</time>
      </trkpt>
      <trkpt lat="46.69523" lon="-1.95276">
        <ele>6</ele>
        <time>2018-04-23T00:50:53Z</time>
      </trkpt>
      <trkpt lat="46.69526" lon="-1.9526">
        <ele>6</ele>
        <time>2018-04-23T00:51:53Z</time>
      </trkpt>
      <trkpt lat="46.69537" lon="-1.9524">
        <ele>6</ele>
        <time>2018-04-23T00:52:53Z</time>
      </trkpt>
      <trkpt lat="46.69543" lon="-1.95241">
        <ele>6</ele>
        <time>2018-04-23T00:53:53Z</time>
      </trkpt>
      <trkpt lat="46.69576" lon="-1.95217">
        <ele>7</ele>
        <time>2018-04-23T00:54:53Z</time>
      </trkpt>
      <trkpt lat="46.69582" lon="-1.9521">
        <ele>7</ele>
        <time>2018-04-23T00:55:53Z</time>
      </trkpt>
      <trkpt lat="46.69594" lon="-1.9519">
        <ele>7</ele>
        <time>2018-04-23T00:56:53Z</time>
      </trkpt>
      <trkpt lat="46.69599" lon="-1.95186">
        <ele>7</ele>
        <time>2018-04-23T00:57:53Z</time>
      </trkpt>
      <trkpt lat="46.69622" lon="-1.95138">
        <ele>7</ele>
        <time>2018-04-23T00:58:53Z</time>
      </trkpt>
      <trkpt lat="46.69685" lon="-1.94984">
        <ele>7</ele>
        <time>2018-04-23T00:59:53Z</time>
      </trkpt>
      <trkpt lat="46.69757" lon="-1.94892">
        <ele>5</ele>
        <time>2018-04-23T01:00:53Z</time>
      </trkpt>
      <trkpt lat="46.69809" lon="-1.94744">
        <ele>4</ele>
        <time>2018-04-23T01:01:53Z</time>
      </trkpt>
      <trkpt lat="46.69808" lon="-1.94736">
        <ele>4</ele>
        <time>2018-04-23T01:02:53Z</time>
      </trkpt>
      <trkpt lat="46.6981" lon="-1.94726">
        <ele>4</ele>
        <time>2018-04-23T01:03:53Z</time>
      </trkpt>
      <trkpt lat="46.69811" lon="-1.9469">
        <ele>4</ele>
        <time>2018-04-23T01:04:53Z</time>
      </trkpt>
      <trkpt lat="46.69805" lon="-1.9466">
        <ele>4</ele>
        <time>2018-04-23T01:05:53Z</time>
      </trkpt>
      <trkpt lat="46.69805" lon="-1.9466">
        <ele>4</ele>
        <time>2018-04-23T01:06:53Z</time>
      </trkpt>
      <trkpt lat="46.69777" lon="-1.9454">
        <ele>3</ele>
        <time>2018-04-23T01:07:53Z</time>
      </trkpt>
      <trkpt lat="46.69702" lon="-1.94314">
        <ele>4</ele>
        <time>2018-04-23T01:08:53Z</time>
      </trkpt>
      <trkpt lat="46.69653" lon="-1.94116">
        <ele>3</ele>
        <time>2018-04-23T01:09:53Z</time>
      </trkpt>
      <trkpt lat="46.69639" lon="-1.94107">
        <ele>3</ele>
        <time>2018-04-23T01:10:53Z</time>
      </trkpt>
      <trkpt lat="46.69627" lon="-1.94114">
        <ele>3</ele>
        <time>2018-04-23T01:11:53Z</time>
      </trkpt>
      <trkpt lat="46.69615" lon="-1.94115">
        <ele>3</ele>
        <time>2018-04-23T01:12:53Z</time>
      </trkpt>
      <trkpt lat="46.69611" lon="-1.94114">
        <ele>3</ele>
        <time>2018-04-23T01:13:53Z</time>
      </trkpt>
      <trkpt lat="46.69606" lon="-1.94104">
        <ele>3</ele>
        <time>2018-04-23T01:14:53Z</time>
      </trkpt>
      <trkpt lat="46.69594" lon="-1.94072">
        <ele>3</ele>
        <time>2018-04-23T01:15:53Z</time>
      </trkpt>
      <trkpt lat="46.69594" lon="-1.94068">
        <ele>3</ele>
        <time>2018-04-23T01:16:53Z</time>
      </trkpt>
      <trkpt lat="46.69585" lon="-1.94051">
        <ele>3</ele>
        <time>2018-04-23T01:17:53Z</time>
      </trkpt>
      <trkpt lat="46.69587" lon="-1.94045">
        <ele>3</ele>
        <time>2018-04-23T01:18:53Z</time>
      </trkpt>
      <trkpt lat="46.69548" lon="-1.93967">
        <ele>4</ele>
        <time>2018-04-23T01:19:53Z</time>
      </trkpt>
      <trkpt lat="46.69526" lon="-1.9391">
        <ele>4</ele>
        <time>2018-04-23T01:20:53Z</time>
      </trkpt>
      <trkpt lat="46.69453" lon="-1.9376">
        <ele>3</ele>
        <time>2018-04-23T01:21:53Z</time>
      </trkpt>
      <trkpt lat="46.6944" lon="-1.93721">
        <ele>3</ele>
        <time>2018-04-23T01:22:53Z</time>
      </trkpt>
      <trkpt lat="46.69428" lon="-1.93673">
        <ele>3</ele>
        <time>2018-04-23T01:23:53Z</time>
      </trkpt>
      <trkpt lat="46.69428" lon="-1.93673">
        <ele>3</ele>
        <time>2018-04-23T01:24:53Z</time>
      </trkpt>
      <trkpt lat="46.69423" lon="-1.93652">
        <ele>3</ele>
        <time>2018-04-23T01:25:53Z</time>
      </trkpt>
      <trkpt lat="46.69422" lon="-1.9364">
        <ele>2</ele>
        <time>2018-04-23T01:26:53Z</time>
      </trkpt>
      <trkpt lat="46.69423" lon="-1.93624">
        <ele>2</ele>
        <time>2018-04-23T01:27:53Z</time>
      </trkpt>
      <trkpt lat="46.69425" lon="-1.93616">
        <ele>2</ele>
        <time>2018-04-23T01:28:53Z</time>
      </trkpt>
      <trkpt lat="46.69434" lon="-1.93603">
        <ele>2</ele>
        <time>2018-04-23T01:29:53Z</time>
      </trkpt>
      <trkpt lat="46.69444" lon="-1.93596">
        <ele>2</ele>
        <time>2018-04-23T01:30:53Z</time>
      </trkpt>
      <trkpt lat="46.69512" lon="-1.93576">
        <ele>3</ele>
        <time>2018-04-23T01:31:53Z</time>
      </trkpt>
      <trkpt lat="46.69553" lon="-1.93592">
        <ele>4</ele>
        <time>2018-04-23T01:32:53Z</time>
      </trkpt>
      <trkpt lat="46.69571" lon="-1.93591">
        <ele>4</ele>
        <time>2018-04-23T01:33:53Z</time>
      </trkpt>
      <trkpt lat="46.69594" lon="-1.93577">
        <ele>4</ele>
        <time>2018-04-23T01:34:53Z</time>
      </trkpt>
      <trkpt lat="46.69598" lon="-1.93578">
        <ele>4</ele>
        <time>2018-04-23T01:35:53Z</time>
      </trkpt>
      <trkpt lat="46.69602" lon="-1.93583">
        <ele>4</ele>
        <time>2018-04-23T01:36:53Z</time>
      </trkpt>
      <trkpt lat="46.69606" lon="-1.93573">
        <ele>4</ele>
        <time>2018-04-23T01:37:53Z</time>
      </trkpt>
      <trkpt lat="46.69608" lon="-1.93551">
        <ele>4</ele>
        <time>2018-04-23T01:38:53Z</time>
      </trkpt>
      <trkpt lat="46.69606" lon="-1.93547">
        <ele>4</ele>
        <time>2018-04-23T01:39:53Z</time>
      </trkpt>
      <trkpt lat="46.69623" lon="-1.93448">
        <ele>4</ele>
        <time>2018-04-23T01:40:53Z</time>
      </trkpt>
      <trkpt lat="46.69627" lon="-1.93443">
        <ele>4</ele>
        <time>2018-04-23T01:41:53Z</time>
      </trkpt>
      <trkpt lat="46.69624" lon="-1.93436">
        <ele>4</ele>
        <time>2018-04-23T01:42:53Z</time>
      </trkpt>
      <trkpt lat="46.69619" lon="-1.93434">
        <ele>4</ele>
        <time>2018-04-23T01:43:53Z</time>
      </trkpt>
      <trkpt lat="46.69616" lon="-1.93426">
        <ele>4</ele>
        <time>2018-04-23T01:44:53Z</time>
      </trkpt>
      <trkpt lat="46.69619" lon="-1.93416">
        <ele>4</ele>
        <time>2018-04-23T01:45:53Z</time>
      </trkpt>
      <trkpt lat="46.69624" lon="-1.93414">
        <ele>5</ele>
        <time>2018-04-23T01:46:53Z</time>
      </trkpt>
      <trkpt lat="46.69627" lon="-1.93415">
        <ele>5</ele>
        <time>2018-04-23T01:47:53Z</time>
      </trkpt>
      <trkpt lat="46.69631" lon="-1.93425">
        <ele>4</ele>
        <time>2018-04-23T01:48:53Z</time>
      </trkpt>
      <trkpt lat="46.69667" lon="-1.93431">
        <ele>5</ele>
        <time>2018-04-23T01:49:53Z</time>
      </trkpt>
      <trkpt lat="46.69684" lon="-1.93436">
        <ele>5</ele>
        <time>2018-04-23T01:50:53Z</time>
      </trkpt>
      <trkpt lat="46.69709" lon="-1.93437">
        <ele>5</ele>
        <time>2018-04-23T01:51:53Z</time>
      </trkpt>
      <trkpt lat="46.69777" lon="-1.93421">
        <ele>5</ele>
        <time>2018-04-23T01:52:53Z</time>
      </trkpt>
      <trkpt lat="46.69784" lon="-1.93422">
        <ele>5</ele>
        <time>2018-04-23T01:53:53Z</time>
      </trkpt>
      <trkpt lat="46.69787" lon="-1.93417">
        <ele>5</ele>
        <time>2018-04-23T01:54:53Z</time>
      </trkpt>
      <trkpt lat="46.69791" lon="-1.93418">
        <ele>5</ele>
        <time>2018-04-23T01:55:53Z</time>
      </trkpt>
      <trkpt lat="46.69793" lon="-1.9342">
        <ele>5</ele>
        <time>2018-04-23T01:56:53Z</time>
      </trkpt>
      <trkpt lat="46.69813" lon="-1.9341">
        <ele>5</ele>
        <time>2018-04-23T01:57:53Z</time>
      </trkpt>
      <trkpt lat="46.69854" lon="-1.93397">
        <ele>5</ele>
        <time>2018-04-23T01:58:53Z</time>
      </trkpt>
    </trkseg>
  </trk>
</gpx>